2016 Cux-Wetter.de -Die Nutzung der Wetterdaten nur mit ausdrcklicher Genehmigung
Wetterdaten: Montag, 01.05.2017
Datum Zeit Temp. A. Feuchte A. Luftdruck Regen Wind Richtung Richtung Sonnenschein Solar Taupunkt Windchill Windben
01.05.2017 00:00 8,9 C 72 % 1012,6 hPa 0,0 l/m 7,3 km/h (2 Bft) O-NO 71 0 min 0 W/m 4,1 C 8,2 C 19,3 km/h (3 Bft)
01.05.2017 00:03 8,9 C 72 % 1012,5 hPa 0,0 l/m 7,8 km/h (2 Bft) O 89 0 min 0 W/m 4,1 C 7,8 C 22,5 km/h (4 Bft)
01.05.2017 00:06 8,9 C 72 % 1012,6 hPa 0,0 l/m 8,4 km/h (2 Bft) O 88 0 min 0 W/m 4,1 C 7,4 C 19,3 km/h (3 Bft)
01.05.2017 00:09 8,9 C 72 % 1012,6 hPa 0,0 l/m 8,8 km/h (2 Bft) O-NO 67 0 min 0 W/m 4,1 C 7,1 C 19,3 km/h (3 Bft)
01.05.2017 00:12 8,8 C 72 % 1012,6 hPa 0,0 l/m 9,8 km/h (2 Bft) NO 37 0 min 0 W/m 4,0 C 6,4 C 19,3 km/h (3 Bft)
01.05.2017 00:15 8,8 C 72 % 1012,5 hPa 0,0 l/m 8,2 km/h (2 Bft) N-NO 19 0 min 0 W/m 4,0 C 7,5 C 22,5 km/h (4 Bft)
01.05.2017 00:18 8,8 C 72 % 1012,6 hPa 0,0 l/m 6,3 km/h (2 Bft) O-NO 71 0 min 0 W/m 4,0 C 8,8 C 17,7 km/h (3 Bft)
01.05.2017 00:21 8,8 C 72 % 1012,6 hPa 0,0 l/m 7,7 km/h (2 Bft) O-NO 78 0 min 0 W/m 4,0 C 7,8 C 20,9 km/h (4 Bft)
01.05.2017 00:24 8,7 C 72 % 1012,6 hPa 0,0 l/m 6,5 km/h (2 Bft) O-NO 60 0 min 0 W/m 3,9 C 8,6 C 16,1 km/h (3 Bft)
01.05.2017 00:27 8,7 C 72 % 1012,6 hPa 0,0 l/m 7,0 km/h (2 Bft) N 5 0 min 0 W/m 3,9 C 8,2 C 22,5 km/h (4 Bft)
01.05.2017 00:30 8,7 C 73 % 1012,5 hPa 0,0 l/m 9,0 km/h (2 Bft) O-NO 65 0 min 0 W/m 4,1 C 6,8 C 24,1 km/h (4 Bft)
01.05.2017 00:33 8,6 C 73 % 1012,6 hPa 0,0 l/m 8,6 km/h (2 Bft) O-NO 63 0 min 0 W/m 4,0 C 7,0 C 19,3 km/h (3 Bft)
01.05.2017 00:36 8,6 C 73 % 1012,6 hPa 0,0 l/m 6,2 km/h (2 Bft) N-NO 22 0 min 0 W/m 4,0 C 8,6 C 14,5 km/h (3 Bft)
01.05.2017 00:39 8,6 C 73 % 1012,6 hPa 0,0 l/m 6,3 km/h (2 Bft) O 84 0 min 0 W/m 4,0 C 8,6 C 12,9 km/h (3 Bft)
01.05.2017 00:42 8,5 C 73 % 1012,5 hPa 0,0 l/m 5,7 km/h (2 Bft) O-SO 113 0 min 0 W/m 3,9 C 8,5 C 12,9 km/h (3 Bft)
01.05.2017 00:45 8,5 C 73 % 1012,5 hPa 0,0 l/m 8,9 km/h (2 Bft) NO 50 0 min 0 W/m 3,9 C 6,6 C 17,7 km/h (3 Bft)
01.05.2017 00:48 8,4 C 73 % 1012,4 hPa 0,0 l/m 8,6 km/h (2 Bft) O-NO 69 0 min 0 W/m 3,8 C 6,7 C 20,9 km/h (4 Bft)
01.05.2017 00:51 8,4 C 74 % 1012,4 hPa 0,0 l/m 8,0 km/h (2 Bft) O 98 0 min 0 W/m 4,0 C 7,2 C 19,3 km/h (3 Bft)
01.05.2017 00:54 8,3 C 74 % 1012,4 hPa 0,0 l/m 5,6 km/h (2 Bft) NO 40 0 min 0 W/m 3,9 C 8,3 C 12,9 km/h (3 Bft)
01.05.2017 00:57 8,3 C 74 % 1012,4 hPa 0,0 l/m 5,8 km/h (2 Bft) N-NO 32 0 min 0 W/m 3,9 C 8,3 C 16,1 km/h (3 Bft)
01.05.2017 01:00 8,2 C 75 % 1012,3 hPa 0,0 l/m 6,1 km/h (2 Bft) NO 43 0 min 0 W/m 4,0 C 8,2 C 14,5 km/h (3 Bft)
01.05.2017 01:03 8,2 C 75 % 1012,3 hPa 0,0 l/m 6,4 km/h (2 Bft) NO 53 0 min 0 W/m 4,0 C 8,2 C 20,9 km/h (4 Bft)
01.05.2017 01:06 8,2 C 75 % 1012,3 hPa 0,0 l/m 7,8 km/h (2 Bft) NW 309 0 min 0 W/m 4,0 C 7,1 C 14,5 km/h (3 Bft)
01.05.2017 01:09 8,2 C 75 % 1012,2 hPa 0,0 l/m 7,2 km/h (2 Bft) NO 54 0 min 0 W/m 4,0 C 7,6 C 16,1 km/h (3 Bft)
01.05.2017 01:12 8,2 C 75 % 1012,2 hPa 0,0 l/m 8,1 km/h (2 Bft) O-SO 111 0 min 0 W/m 4,0 C 6,9 C 17,7 km/h (3 Bft)
01.05.2017 01:15 8,1 C 75 % 1012,2 hPa 0,0 l/m 7,9 km/h (2 Bft) N-NO 32 0 min 0 W/m 3,9 C 6,9 C 20,9 km/h (4 Bft)
01.05.2017 01:18 8,1 C 75 % 1012,2 hPa 0,0 l/m 5,7 km/h (2 Bft) O-NO 57 0 min 0 W/m 3,9 C 8,1 C 11,3 km/h (2 Bft)
01.05.2017 01:21 8,1 C 75 % 1012,2 hPa 0,0 l/m 8,1 km/h (2 Bft) NO 53 0 min 0 W/m 3,9 C 6,8 C 19,3 km/h (3 Bft)
01.05.2017 01:24 8,1 C 76 % 1012,1 hPa 0,0 l/m 5,8 km/h (2 Bft) NO 46 0 min 0 W/m 4,1 C 8,1 C 14,5 km/h (3 Bft)
01.05.2017 01:27 8,0 C 76 % 1012,1 hPa 0,0 l/m 8,2 km/h (2 Bft) N-NW 339 0 min 0 W/m 4,0 C 6,6 C 19,3 km/h (3 Bft)
01.05.2017 01:30 8,0 C 76 % 1012,1 hPa 0,0 l/m 7,3 km/h (2 Bft) NO 55 0 min 0 W/m 4,0 C 7,3 C 16,1 km/h (3 Bft)
01.05.2017 01:33 8,0 C 76 % 1012,1 hPa 0,0 l/m 7,3 km/h (2 Bft) O-NO 71 0 min 0 W/m 4,0 C 7,3 C 19,3 km/h (3 Bft)
01.05.2017 01:36 7,9 C 76 % 1012,1 hPa 0,0 l/m 6,9 km/h (2 Bft) O-NO 76 0 min 0 W/m 3,9 C 7,5 C 14,5 km/h (3 Bft)
01.05.2017 01:39 7,9 C 76 % 1012,1 hPa 0,0 l/m 6,9 km/h (2 Bft) O 80 0 min 0 W/m 3,9 C 7,5 C 14,5 km/h (3 Bft)
01.05.2017 01:42 7,9 C 76 % 1012,0 hPa 0,0 l/m 8,4 km/h (2 Bft) O-NO 72 0 min 0 W/m 3,9 C 6,4 C 24,1 km/h (4 Bft)
01.05.2017 01:45 7,9 C 75 % 1012,0 hPa 0,0 l/m 6,0 km/h (2 Bft) O 94 0 min 0 W/m 3,7 C 7,9 C 16,1 km/h (3 Bft)
01.05.2017 01:48 7,9 C 75 % 1012,0 hPa 0,0 l/m 7,6 km/h (2 Bft) SO 134 0 min 0 W/m 3,7 C 7,0 C 19,3 km/h (3 Bft)
01.05.2017 01:51 7,9 C 74 % 1011,9 hPa 0,0 l/m 6,9 km/h (2 Bft) O 82 0 min 0 W/m 3,6 C 7,5 C 20,9 km/h (4 Bft)
01.05.2017 01:54 7,9 C 74 % 1012,0 hPa 0,0 l/m 7,2 km/h (2 Bft) S 169 0 min 0 W/m 3,6 C 7,3 C 17,7 km/h (3 Bft)
01.05.2017 01:57 7,9 C 74 % 1011,9 hPa 0,0 l/m 7,2 km/h (2 Bft) O-SO 110 0 min 0 W/m 3,6 C 7,3 C 14,5 km/h (3 Bft)
01.05.2017 02:00 7,9 C 74 % 1011,8 hPa 0,0 l/m 5,7 km/h (2 Bft) O-NO 74 0 min 0 W/m 3,6 C 7,9 C 14,5 km/h (3 Bft)
01.05.2017 02:03 7,9 C 74 % 1011,8 hPa 0,0 l/m 6,9 km/h (2 Bft) NO 53 0 min 0 W/m 3,6 C 7,5 C 16,1 km/h (3 Bft)
01.05.2017 02:06 7,9 C 73 % 1011,8 hPa 0,0 l/m 7,3 km/h (2 Bft) NO 53 0 min 0 W/m 3,4 C 7,2 C 17,7 km/h (3 Bft)
01.05.2017 02:09 8,0 C 73 % 1011,6 hPa 0,0 l/m 6,8 km/h (2 Bft) NO 41 0 min 0 W/m 3,5 C 7,7 C 17,7 km/h (3 Bft)
01.05.2017 02:12 8,0 C 73 % 1011,7 hPa 0,0 l/m 6,3 km/h (2 Bft) NO 50 0 min 0 W/m 3,5 C 8,0 C 14,5 km/h (3 Bft)
01.05.2017 02:15 8,0 C 72 % 1011,7 hPa 0,0 l/m 7,5 km/h (2 Bft) N-NO 23 0 min 0 W/m 3,3 C 7,1 C 20,9 km/h (4 Bft)
01.05.2017 02:18 8,1 C 72 % 1011,6 hPa 0,0 l/m 9,9 km/h (2 Bft) NO 55 0 min 0 W/m 3,4 C 5,6 C 20,9 km/h (4 Bft)
01.05.2017 02:21 8,1 C 72 % 1011,6 hPa 0,0 l/m 8,1 km/h (2 Bft) NO 36 0 min 0 W/m 3,4 C 6,8 C 20,9 km/h (4 Bft)
01.05.2017 02:24 8,1 C 71 % 1011,6 hPa 0,0 l/m 8,1 km/h (2 Bft) O-NO 75 0 min 0 W/m 3,2 C 6,8 C 19,3 km/h (3 Bft)
01.05.2017 02:27 8,1 C 71 % 1011,6 hPa 0,0 l/m 5,8 km/h (2 Bft) O-NO 58 0 min 0 W/m 3,2 C 8,1 C 12,9 km/h (3 Bft)
01.05.2017 02:30 8,1 C 71 % 1011,6 hPa 0,0 l/m 8,1 km/h (2 Bft) O-NO 57 0 min 0 W/m 3,2 C 6,8 C 19,3 km/h (3 Bft)
01.05.2017 02:33 8,1 C 71 % 1011,7 hPa 0,0 l/m 8,2 km/h (2 Bft) O-SO 108 0 min 0 W/m 3,2 C 6,7 C 22,5 km/h (4 Bft)
01.05.2017 02:36 8,1 C 71 % 1011,5 hPa 0,0 l/m 7,2 km/h (2 Bft) O 90 0 min 0 W/m 3,2 C 7,5 C 19,3 km/h (3 Bft)
01.05.2017 02:39 8,1 C 71 % 1011,6 hPa 0,0 l/m 5,7 km/h (2 Bft) O-NO 69 0 min 0 W/m 3,2 C 8,1 C 14,5 km/h (3 Bft)
01.05.2017 02:42 8,1 C 71 % 1011,6 hPa 0,0 l/m 10,0 km/h (2 Bft) O-SO 117 0 min 0 W/m 3,2 C 5,5 C 22,5 km/h (4 Bft)
01.05.2017 02:45 8,1 C 71 % 1011,6 hPa 0,0 l/m 6,3 km/h (2 Bft) O 80 0 min 0 W/m 3,2 C 8,1 C 19,3 km/h (3 Bft)
01.05.2017 02:48 8,1 C 71 % 1011,6 hPa 0,0 l/m 8,7 km/h (2 Bft) O-NO 69 0 min 0 W/m 3,2 C 6,4 C 20,9 km/h (4 Bft)
01.05.2017 02:51 8,1 C 71 % 1011,5 hPa 0,0 l/m 8,5 km/h (2 Bft) NO 46 0 min 0 W/m 3,2 C 6,5 C 19,3 km/h (3 Bft)
01.05.2017 02:54 8,1 C 71 % 1011,6 hPa 0,0 l/m 9,8 km/h (2 Bft) O-SO 112 0 min 0 W/m 3,2 C 5,6 C 24,1 km/h (4 Bft)
01.05.2017 02:57 8,1 C 71 % 1011,6 hPa 0,0 l/m 6,8 km/h (2 Bft) NO 42 0 min 0 W/m 3,2 C 7,8 C 22,5 km/h (4 Bft)
01.05.2017 03:00 8,1 C 71 % 1011,5 hPa 0,0 l/m 8,6 km/h (2 Bft) NW 311 0 min 0 W/m 3,2 C 6,4 C 22,5 km/h (4 Bft)
01.05.2017 03:03 8,1 C 71 % 1011,6 hPa 0,0 l/m 9,3 km/h (2 Bft) O-NO 65 0 min 0 W/m 3,2 C 5,9 C 24,1 km/h (4 Bft)
01.05.2017 03:06 8,1 C 71 % 1011,6 hPa 0,0 l/m 8,2 km/h (2 Bft) O 97 0 min 0 W/m 3,2 C 6,7 C 24,1 km/h (4 Bft)
01.05.2017 03:09 8,1 C 72 % 1011,6 hPa 0,0 l/m 4,6 km/h (1 Bft) O-SO 114 0 min 0 W/m 3,4 C 8,1 C 14,5 km/h (3 Bft)
01.05.2017 03:12 8,0 C 72 % 1011,6 hPa 0,0 l/m 6,3 km/h (2 Bft) SO 142 0 min 0 W/m 3,3 C 8,0 C 17,7 km/h (3 Bft)
01.05.2017 03:15 8,0 C 72 % 1011,7 hPa 0,0 l/m 6,4 km/h (2 Bft) O-SO 107 0 min 0 W/m 3,3 C 8,0 C 16,1 km/h (3 Bft)
01.05.2017 03:18 8,0 C 72 % 1011,6 hPa 0,0 l/m 7,2 km/h (2 Bft) SO 128 0 min 0 W/m 3,3 C 7,4 C 19,3 km/h (3 Bft)
01.05.2017 03:21 8,0 C 72 % 1011,7 hPa 0,0 l/m 6,2 km/h (2 Bft) NO 42 0 min 0 W/m 3,3 C 8,0 C 11,3 km/h (2 Bft)
01.05.2017 03:24 7,9 C 72 % 1011,8 hPa 0,0 l/m 4,4 km/h (1 Bft) SO 140 0 min 0 W/m 3,2 C 7,9 C 12,9 km/h (3 Bft)
01.05.2017 03:27 7,9 C 72 % 1011,8 hPa 0,0 l/m 5,8 km/h (2 Bft) NO 40 0 min 0 W/m 3,2 C 7,9 C 17,7 km/h (3 Bft)
01.05.2017 03:30 7,8 C 72 % 1011,7 hPa 0,0 l/m 5,4 km/h (2 Bft) S-SO 165 0 min 0 W/m 3,1 C 7,8 C 16,1 km/h (3 Bft)
01.05.2017 03:33 7,8 C 72 % 1011,6 hPa 0,0 l/m 9,3 km/h (2 Bft) SO 142 0 min 0 W/m 3,1 C 5,6 C 16,1 km/h (3 Bft)
01.05.2017 03:36 7,8 C 72 % 1011,8 hPa 0,0 l/m 5,9 km/h (2 Bft) O 91 0 min 0 W/m 3,1 C 7,8 C 16,1 km/h (3 Bft)
01.05.2017 03:39 7,8 C 72 % 1011,8 hPa 0,0 l/m 7,4 km/h (2 Bft) NO 34 0 min 0 W/m 3,1 C 7,0 C 22,5 km/h (4 Bft)
01.05.2017 03:42 7,8 C 72 % 1011,7 hPa 0,0 l/m 8,4 km/h (2 Bft) NO 48 0 min 0 W/m 3,1 C 6,2 C 19,3 km/h (3 Bft)
01.05.2017 03:45 7,8 C 72 % 1011,8 hPa 0,0 l/m 6,2 km/h (2 Bft) S 176 0 min 0 W/m 3,1 C 7,8 C 16,1 km/h (3 Bft)
01.05.2017 03:48 7,7 C 73 % 1011,8 hPa 0,0 l/m 6,8 km/h (2 Bft) S-SO 156 0 min 0 W/m 3,2 C 7,4 C 19,3 km/h (3 Bft)
01.05.2017 03:51 7,7 C 73 % 1011,7 hPa 0,0 l/m 8,1 km/h (2 Bft) O-NO 65 0 min 0 W/m 3,2 C 6,4 C 20,9 km/h (4 Bft)
01.05.2017 03:54 7,7 C 73 % 1011,8 hPa 0,0 l/m 8,2 km/h (2 Bft) O 83 0 min 0 W/m 3,2 C 6,3 C 22,5 km/h (4 Bft)
01.05.2017 03:57 7,7 C 73 % 1011,7 hPa 0,0 l/m 8,8 km/h (2 Bft) O 90 0 min 0 W/m 3,2 C 5,9 C 22,5 km/h (4 Bft)
01.05.2017 04:00 7,7 C 73 % 1011,7 hPa 0,0 l/m 7,8 km/h (2 Bft) O-NO 78 0 min 0 W/m 3,2 C 6,6 C 19,3 km/h (3 Bft)
01.05.2017 04:03 7,6 C 73 % 1011,6 hPa 0,0 l/m 5,8 km/h (2 Bft) O-NO 78 0 min 0 W/m 3,1 C 7,6 C 12,9 km/h (3 Bft)
01.05.2017 04:06 7,6 C 73 % 1011,8 hPa 0,0 l/m 9,4 km/h (2 Bft) O-NO 78 0 min 0 W/m 3,1 C 5,3 C 29,0 km/h (5 Bft)
01.05.2017 04:09 7,6 C 74 % 1011,6 hPa 0,0 l/m 7,0 km/h (2 Bft) O 101 0 min 0 W/m 3,3 C 7,1 C 17,7 km/h (3 Bft)
01.05.2017 04:12 7,6 C 74 % 1011,7 hPa 0,0 l/m 7,2 km/h (2 Bft) O 90 0 min 0 W/m 3,3 C 7,0 C 17,7 km/h (3 Bft)
01.05.2017 04:15 7,6 C 74 % 1011,8 hPa 0,0 l/m 5,1 km/h (1 Bft) S-SO 154 0 min 0 W/m 3,3 C 7,6 C 14,5 km/h (3 Bft)
01.05.2017 04:18 7,4 C 74 % 1011,8 hPa 0,0 l/m 4,9 km/h (1 Bft) O 94 0 min 0 W/m 3,1 C 7,4 C 14,5 km/h (3 Bft)
01.05.2017 04:21 7,4 C 75 % 1011,8 hPa 0,0 l/m 8,8 km/h (2 Bft) O-NO 76 0 min 0 W/m 3,3 C 5,5 C 16,1 km/h (3 Bft)
01.05.2017 04:24 7,4 C 75 % 1011,7 hPa 0,0 l/m 6,1 km/h (2 Bft) O-NO 57 0 min 0 W/m 3,3 C 7,4 C 16,1 km/h (3 Bft)
01.05.2017 04:27 7,4 C 75 % 1011,6 hPa 0,0 l/m 9,3 km/h (2 Bft) O-SO 117 0 min 0 W/m 3,3 C 5,2 C 19,3 km/h (3 Bft)
01.05.2017 04:30 7,4 C 75 % 1011,6 hPa 0,0 l/m 7,7 km/h (2 Bft) O-SO 121 0 min 0 W/m 3,3 C 6,4 C 20,9 km/h (4 Bft)
01.05.2017 04:33 7,4 C 75 % 1011,6 hPa 0,0 l/m 6,7 km/h (2 Bft) O 79 0 min 0 W/m 3,3 C 7,2 C 22,5 km/h (4 Bft)
01.05.2017 04:36 7,3 C 75 % 1011,6 hPa 0,0 l/m 7,6 km/h (2 Bft) N 9 0 min 0 W/m 3,2 C 6,3 C 20,9 km/h (4 Bft)
01.05.2017 04:39 7,3 C 75 % 1011,6 hPa 0,0 l/m 8,9 km/h (2 Bft) O-NO 67 0 min 0 W/m 3,2 C 5,4 C 20,9 km/h (4 Bft)
01.05.2017 04:42 7,3 C 75 % 1011,5 hPa 0,0 l/m 8,0 km/h (2 Bft) O-NO 69 0 min 0 W/m 3,2 C 6,0 C 19,3 km/h (3 Bft)
01.05.2017 04:45 7,3 C 75 % 1011,5 hPa 0,0 l/m 6,1 km/h (2 Bft) O-NO 71 0 min 0 W/m 3,2 C 7,3 C 16,1 km/h (3 Bft)
01.05.2017 04:48 7,3 C 75 % 1011,4 hPa 0,0 l/m 6,8 km/h (2 Bft) N-NW 329 0 min 0 W/m 3,2 C 7,0 C 14,5 km/h (3 Bft)
01.05.2017 04:51 7,3 C 76 % 1011,3 hPa 0,0 l/m 9,1 km/h (2 Bft) N-NO 26 0 min 0 W/m 3,4 C 5,2 C 22,5 km/h (4 Bft)
01.05.2017 04:54 7,2 C 76 % 1011,3 hPa 0,0 l/m 5,9 km/h (2 Bft) O-NO 62 0 min 0 W/m 3,3 C 7,2 C 17,7 km/h (3 Bft)
01.05.2017 04:57 7,2 C 76 % 1011,4 hPa 0,0 l/m 9,0 km/h (2 Bft) N-NW 336 0 min 0 W/m 3,3 C 5,2 C 20,9 km/h (4 Bft)
01.05.2017 05:00 7,2 C 76 % 1011,3 hPa 0,0 l/m 6,9 km/h (2 Bft) N 9 0 min 0 W/m 3,3 C 6,8 C 16,1 km/h (3 Bft)
01.05.2017 05:03 7,2 C 76 % 1011,3 hPa 0,0 l/m 7,7 km/h (2 Bft) N-NW 346 0 min 0 W/m 3,3 C 6,1 C 24,1 km/h (4 Bft)
01.05.2017 05:06 7,2 C 76 % 1011,2 hPa 0,0 l/m 7,9 km/h (2 Bft) N 360 0 min 0 W/m 3,3 C 6,0 C 16,1 km/h (3 Bft)
01.05.2017 05:09 7,2 C 76 % 1011,2 hPa 0,0 l/m 6,1 km/h (2 Bft) NO 41 0 min 0 W/m 3,3 C 7,2 C 12,9 km/h (3 Bft)
01.05.2017 05:12 7,1 C 77 % 1011,1 hPa 0,0 l/m 11,8 km/h (2 Bft) O-NO 78 0 min 0 W/m 3,3 C 3,3 C 24,1 km/h (4 Bft)
01.05.2017 05:15 7,1 C 77 % 1011,2 hPa 0,0 l/m 8,3 km/h (2 Bft) NO 51 0 min 0 W/m 3,3 C 5,6 C 16,1 km/h (3 Bft)
01.05.2017 05:18 7,2 C 77 % 1011,1 hPa 0,0 l/m 9,9 km/h (2 Bft) O-NO 71 0 min 0 W/m 3,4 C 4,6 C 22,5 km/h (4 Bft)
01.05.2017 05:21 7,2 C 77 % 1011,1 hPa 0,0 l/m 13,1 km/h (3 Bft) NO 53 0 min 0 W/m 3,4 C 2,7 C 27,4 km/h (5 Bft)
01.05.2017 05:24 7,2 C 77 % 1011,0 hPa 0,0 l/m 9,9 km/h (2 Bft) O-SO 111 0 min 0 W/m 3,4 C 4,6 C 27,4 km/h (5 Bft)
01.05.2017 05:27 7,2 C 77 % 1011,1 hPa 0,0 l/m 8,7 km/h (2 Bft) NO 38 0 min 0 W/m 3,4 C 5,4 C 17,7 km/h (3 Bft)
01.05.2017 05:30 7,2 C 77 % 1011,1 hPa 0,0 l/m 7,7 km/h (2 Bft) O-SO 111 0 min 0 W/m 3,4 C 6,1 C 22,5 km/h (4 Bft)
01.05.2017 05:33 7,2 C 77 % 1011,1 hPa 0,0 l/m 6,5 km/h (2 Bft) NO 39 0 min 0 W/m 3,4 C 7,1 C 16,1 km/h (3 Bft)
01.05.2017 05:36 7,2 C 77 % 1011,2 hPa 0,0 l/m 8,8 km/h (2 Bft) O-NO 68 0 min 0 W/m 3,4 C 5,3 C 19,3 km/h (3 Bft)
01.05.2017 05:39 7,1 C 77 % 1011,1 hPa 0,0 l/m 7,1 km/h (2 Bft) NO 36 0 min 0 W/m 3,3 C 6,5 C 16,1 km/h (3 Bft)
01.05.2017 05:42 7,1 C 77 % 1011,2 hPa 0,0 l/m 7,7 km/h (2 Bft) NO 53 0 min 0 W/m 3,3 C 6,0 C 24,1 km/h (4 Bft)
01.05.2017 05:45 7,1 C 78 % 1011,2 hPa 0,0 l/m 9,8 km/h (2 Bft) O-NO 71 0 min 0 W/m 3,5 C 4,5 C 25,7 km/h (4 Bft)
01.05.2017 05:48 7,1 C 78 % 1011,2 hPa 0,0 l/m 8,5 km/h (2 Bft) O-NO 61 0 min 0 W/m 3,5 C 5,4 C 25,7 km/h (4 Bft)
01.05.2017 05:51 7,1 C 78 % 1011,2 hPa 0,0 l/m 9,0 km/h (2 Bft) N 5 0 min 0 W/m 3,5 C 5,1 C 22,5 km/h (4 Bft)
01.05.2017 05:54 7,1 C 78 % 1011,2 hPa 0,0 l/m 9,0 km/h (2 Bft) O-SO 119 0 min 0 W/m 3,5 C 5,1 C 17,7 km/h (3 Bft)
01.05.2017 05:57 7,1 C 78 % 1011,2 hPa 0,0 l/m 8,0 km/h (2 Bft) W-SW 242 0 min 0 W/m 3,5 C 5,8 C 20,9 km/h (4 Bft)
01.05.2017 06:00 7,1 C 78 % 1011,4 hPa 0,0 l/m 7,4 km/h (2 Bft) S-SW 208 0 min 5 W/m 3,5 C 6,3 C 22,5 km/h (4 Bft)
01.05.2017 06:03 7,0 C 78 % 1011,4 hPa 0,0 l/m 10,9 km/h (2 Bft) O 82 0 min 5 W/m 3,4 C 3,7 C 27,4 km/h (5 Bft)
01.05.2017 06:06 7,0 C 77 % 1011,3 hPa 0,0 l/m 10,0 km/h (2 Bft) N 355 0 min 5 W/m 3,2 C 4,3 C 20,9 km/h (4 Bft)
01.05.2017 06:09 7,0 C 77 % 1011,4 hPa 0,0 l/m 8,8 km/h (2 Bft) NO 38 0 min 5 W/m 3,2 C 5,1 C 27,4 km/h (5 Bft)
01.05.2017 06:12 6,9 C 77 % 1011,5 hPa 0,0 l/m 11,0 km/h (2 Bft) SO 128 0 min 7 W/m 3,2 C 3,5 C 24,1 km/h (4 Bft)
01.05.2017 06:15 6,9 C 77 % 1011,4 hPa 0,0 l/m 9,5 km/h (2 Bft) O-NO 58 0 min 7 W/m 3,2 C 4,5 C 22,5 km/h (4 Bft)
01.05.2017 06:18 6,9 C 77 % 1011,4 hPa 0,0 l/m 6,1 km/h (2 Bft) SO 143 0 min 9 W/m 3,2 C 6,9 C 14,5 km/h (3 Bft)
01.05.2017 06:21 6,9 C 78 % 1011,4 hPa 0,0 l/m 8,3 km/h (2 Bft) N-NO 21 0 min 9 W/m 3,3 C 5,4 C 20,9 km/h (4 Bft)
01.05.2017 06:24 6,9 C 78 % 1011,3 hPa 0,0 l/m 9,3 km/h (2 Bft) O-NO 67 0 min 11 W/m 3,3 C 4,6 C 22,5 km/h (4 Bft)
01.05.2017 06:27 6,9 C 78 % 1011,4 hPa 0,0 l/m 9,5 km/h (2 Bft) O 80 0 min 11 W/m 3,3 C 4,5 C 20,9 km/h (4 Bft)
01.05.2017 06:30 6,9 C 78 % 1011,4 hPa 0,0 l/m 6,5 km/h (2 Bft) NO 40 0 min 11 W/m 3,3 C 6,8 C 19,3 km/h (3 Bft)
01.05.2017 06:33 6,9 C 78 % 1011,3 hPa 0,0 l/m 10,9 km/h (2 Bft) N-NO 19 0 min 12 W/m 3,3 C 3,6 C 20,9 km/h (4 Bft)
01.05.2017 06:36 6,9 C 78 % 1011,4 hPa 0,0 l/m 11,9 km/h (2 Bft) SO 136 0 min 14 W/m 3,3 C 3,0 C 20,9 km/h (4 Bft)
01.05.2017 06:39 6,9 C 78 % 1011,4 hPa 0,0 l/m 7,4 km/h (2 Bft) NO 49 0 min 14 W/m 3,3 C 6,1 C 17,7 km/h (3 Bft)
01.05.2017 06:42 6,8 C 78 % 1011,2 hPa 0,0 l/m 10,2 km/h (2 Bft) O-NO 57 0 min 16 W/m 3,2 C 3,9 C 29,0 km/h (5 Bft)
01.05.2017 06:45 6,9 C 78 % 1011,3 hPa 0,0 l/m 9,3 km/h (2 Bft) O-NO 76 0 min 18 W/m 3,3 C 4,6 C 25,7 km/h (4 Bft)
01.05.2017 06:48 6,9 C 78 % 1011,4 hPa 0,0 l/m 6,7 km/h (2 Bft) SO 131 0 min 19 W/m 3,3 C 6,7 C 20,9 km/h (4 Bft)
01.05.2017 06:51 6,8 C 78 % 1011,4 hPa 0,0 l/m 8,8 km/h (2 Bft) O 93 0 min 19 W/m 3,2 C 4,9 C 22,5 km/h (4 Bft)
01.05.2017 06:54 6,9 C 78 % 1011,4 hPa 0,0 l/m 10,1 km/h (2 Bft) O-NO 62 0 min 19 W/m 3,3 C 4,1 C 19,3 km/h (3 Bft)
01.05.2017 06:57 6,9 C 78 % 1011,4 hPa 0,0 l/m 12,3 km/h (2 Bft) NO 43 0 min 21 W/m 3,3 C 2,8 C 24,1 km/h (4 Bft)
01.05.2017 07:00 6,9 C 78 % 1011,3 hPa 0,0 l/m 10,0 km/h (2 Bft) NO 51 0 min 25 W/m 3,3 C 4,2 C 19,3 km/h (3 Bft)
01.05.2017 07:03 6,9 C 78 % 1011,5 hPa 0,0 l/m 8,7 km/h (2 Bft) O-NO 74 0 min 28 W/m 3,3 C 5,1 C 20,9 km/h (4 Bft)
01.05.2017 07:06 7,0 C 78 % 1011,5 hPa 0,0 l/m 6,6 km/h (2 Bft) O-NO 74 0 min 35 W/m 3,4 C 6,9 C 17,7 km/h (3 Bft)
01.05.2017 07:09 6,9 C 78 % 1011,5 hPa 0,0 l/m 9,1 km/h (2 Bft) SO 146 0 min 40 W/m 3,3 C 4,8 C 20,9 km/h (4 Bft)
01.05.2017 07:12 7,0 C 78 % 1011,5 hPa 0,0 l/m 8,6 km/h (2 Bft) O-NO 74 0 min 46 W/m 3,4 C 5,3 C 16,1 km/h (3 Bft)
01.05.2017 07:15 7,1 C 78 % 1011,6 hPa 0,0 l/m 10,3 km/h (2 Bft) N-NO 30 0 min 47 W/m 3,5 C 4,2 C 22,5 km/h (4 Bft)
01.05.2017 07:18 7,1 C 78 % 1011,5 hPa 0,0 l/m 10,8 km/h (2 Bft) NO 55 0 min 49 W/m 3,5 C 3,9 C 25,7 km/h (4 Bft)
01.05.2017 07:21 7,2 C 78 % 1011,6 hPa 0,0 l/m 9,2 km/h (2 Bft) O-NO 61 0 min 46 W/m 3,6 C 5,0 C 22,5 km/h (4 Bft)
01.05.2017 07:24 7,2 C 78 % 1011,6 hPa 0,0 l/m 10,1 km/h (2 Bft) NO 54 0 min 46 W/m 3,6 C 4,4 C 19,3 km/h (3 Bft)
01.05.2017 07:27 7,2 C 78 % 1011,6 hPa 0,0 l/m 5,8 km/h (2 Bft) NO 47 0 min 47 W/m 3,6 C 7,2 C 14,5 km/h (3 Bft)
01.05.2017 07:30 7,3 C 77 % 1011,6 hPa 0,0 l/m 10,8 km/h (2 Bft) O-NO 67 0 min 47 W/m 3,5 C 4,1 C 25,7 km/h (4 Bft)
01.05.2017 07:33 7,3 C 77 % 1011,6 hPa 0,0 l/m 7,8 km/h (2 Bft) NO 45 0 min 49 W/m 3,5 C 6,2 C 24,1 km/h (4 Bft)
01.05.2017 07:36 7,3 C 77 % 1011,7 hPa 0,0 l/m 6,3 km/h (2 Bft) NO 45 0 min 49 W/m 3,5 C 7,3 C 25,7 km/h (4 Bft)
01.05.2017 07:39 7,3 C 77 % 1011,6 hPa 0,0 l/m 7,0 km/h (2 Bft) O-NO 61 0 min 49 W/m 3,5 C 6,8 C 20,9 km/h (4 Bft)
01.05.2017 07:42 7,3 C 77 % 1011,7 hPa 0,0 l/m 7,5 km/h (2 Bft) SO 134 0 min 49 W/m 3,5 C 6,4 C 22,5 km/h (4 Bft)
01.05.2017 07:45 7,3 C 77 % 1011,7 hPa 0,0 l/m 11,6 km/h (2 Bft) O-NO 62 0 min 49 W/m 3,5 C 3,6 C 24,1 km/h (4 Bft)
01.05.2017 07:48 7,4 C 77 % 1011,7 hPa 0,0 l/m 10,0 km/h (2 Bft) O 93 0 min 49 W/m 3,6 C 4,7 C 29,0 km/h (5 Bft)
01.05.2017 07:51 7,4 C 77 % 1011,7 hPa 0,0 l/m 8,1 km/h (2 Bft) O 79 0 min 49 W/m 3,6 C 6,0 C 16,1 km/h (3 Bft)
01.05.2017 07:54 7,4 C 76 % 1011,8 hPa 0,0 l/m 12,5 km/h (2 Bft) S-SO 159 0 min 51 W/m 3,5 C 3,2 C 25,7 km/h (4 Bft)
01.05.2017 07:57 7,4 C 76 % 1011,8 hPa 0,0 l/m 8,7 km/h (2 Bft) NO 46 0 min 51 W/m 3,5 C 5,6 C 24,1 km/h (4 Bft)
01.05.2017 08:00 7,4 C 76 % 1011,6 hPa 0,0 l/m 11,4 km/h (2 Bft) O-NO 57 0 min 56 W/m 3,5 C 3,9 C 29,0 km/h (5 Bft)
01.05.2017 08:03 7,5 C 76 % 1011,7 hPa 0,0 l/m 8,2 km/h (2 Bft) O-NO 71 0 min 53 W/m 3,5 C 6,1 C 29,0 km/h (5 Bft)
01.05.2017 08:06 7,5 C 76 % 1011,7 hPa 0,0 l/m 10,2 km/h (2 Bft) O-NO 75 0 min 54 W/m 3,5 C 4,7 C 25,7 km/h (4 Bft)
01.05.2017 08:09 7,5 C 76 % 1011,8 hPa 0,0 l/m 10,2 km/h (2 Bft) NO 53 0 min 67 W/m 3,5 C 4,7 C 22,5 km/h (4 Bft)
01.05.2017 08:12 7,6 C 76 % 1011,9 hPa 0,0 l/m 9,1 km/h (2 Bft) O-SO 118 0 min 67 W/m 3,6 C 5,5 C 29,0 km/h (5 Bft)
01.05.2017 08:15 7,6 C 76 % 1011,9 hPa 0,0 l/m 8,6 km/h (2 Bft) O 87 3 min 227 W/m 3,6 C 5,9 C 22,5 km/h (4 Bft)
01.05.2017 08:18 7,7 C 76 % 1011,8 hPa 0,0 l/m 8,1 km/h (2 Bft) O-SO 106 0 min 141 W/m 3,7 C 6,4 C 24,1 km/h (4 Bft)
01.05.2017 08:21 7,8 C 75 % 1011,9 hPa 0,0 l/m 11,0 km/h (2 Bft) NW 314 0 min 104 W/m 3,7 C 4,6 C 25,7 km/h (4 Bft)
01.05.2017 08:24 7,9 C 75 % 1011,9 hPa 0,0 l/m 9,4 km/h (2 Bft) N 9 0 min 74 W/m 3,7 C 5,7 C 24,1 km/h (4 Bft)
01.05.2017 08:27 7,9 C 75 % 1012,0 hPa 0,0 l/m 12,8 km/h (3 Bft) O 84 0 min 76 W/m 3,7 C 3,7 C 27,4 km/h (5 Bft)
01.05.2017 08:30 8,0 C 75 % 1012,0 hPa 0,0 l/m 9,4 km/h (2 Bft) NO 41 0 min 79 W/m 3,8 C 5,8 C 19,3 km/h (3 Bft)
01.05.2017 08:33 8,1 C 75 % 1012,0 hPa 0,0 l/m 9,7 km/h (2 Bft) NO 49 0 min 83 W/m 3,9 C 5,7 C 19,3 km/h (3 Bft)
01.05.2017 08:36 8,1 C 74 % 1012,1 hPa 0,0 l/m 11,2 km/h (2 Bft) SO 139 0 min 84 W/m 3,8 C 4,8 C 22,5 km/h (4 Bft)
01.05.2017 08:39 8,2 C 75 % 1012,0 hPa 0,0 l/m 10,8 km/h (2 Bft) O 97 0 min 84 W/m 4,0 C 5,1 C 24,1 km/h (4 Bft)
01.05.2017 08:42 8,3 C 74 % 1012,0 hPa 0,0 l/m 9,0 km/h (2 Bft) N-NO 21 0 min 84 W/m 3,9 C 6,4 C 20,9 km/h (4 Bft)
01.05.2017 08:45 8,3 C 74 % 1012,0 hPa 0,0 l/m 7,5 km/h (2 Bft) O 87 0 min 88 W/m 3,9 C 7,4 C 17,7 km/h (3 Bft)
01.05.2017 08:48 8,4 C 74 % 1012,0 hPa 0,0 l/m 8,8 km/h (2 Bft) SO 138 0 min 90 W/m 4,0 C 6,6 C 22,5 km/h (4 Bft)
01.05.2017 08:51 8,4 C 74 % 1012,1 hPa 0,0 l/m 9,0 km/h (2 Bft) O 84 0 min 169 W/m 4,0 C 6,5 C 20,9 km/h (4 Bft)
01.05.2017 08:54 8,5 C 74 % 1012,1 hPa 0,0 l/m 10,0 km/h (2 Bft) O-SO 117 3 min 258 W/m 4,1 C 5,9 C 25,7 km/h (4 Bft)
01.05.2017 08:57 8,6 C 74 % 1012,1 hPa 0,0 l/m 10,7 km/h (2 Bft) N-NW 328 0 min 237 W/m 4,2 C 5,6 C 25,7 km/h (4 Bft)
01.05.2017 09:00 8,7 C 73 % 1012,1 hPa 0,0 l/m 10,1 km/h (2 Bft) NO 42 0 min 155 W/m 4,1 C 6,1 C 24,1 km/h (4 Bft)
01.05.2017 09:03 8,7 C 73 % 1012,1 hPa 0,0 l/m 6,5 km/h (2 Bft) O-SO 117 0 min 153 W/m 4,1 C 8,6 C 16,1 km/h (3 Bft)
01.05.2017 09:06 8,8 C 73 % 1012,1 hPa 0,0 l/m 9,6 km/h (2 Bft) NW 315 0 min 144 W/m 4,2 C 6,5 C 19,3 km/h (3 Bft)
01.05.2017 09:09 9,0 C 72 % 1012,1 hPa 0,0 l/m 9,8 km/h (2 Bft) O-NO 63 0 min 178 W/m 4,2 C 6,6 C 24,1 km/h (4 Bft)
01.05.2017 09:12 9,1 C 72 % 1012,1 hPa 0,0 l/m 10,1 km/h (2 Bft) O-NO 73 3 min 359 W/m 4,3 C 6,5 C 29,0 km/h (5 Bft)
01.05.2017 09:15 9,3 C 72 % 1011,9 hPa 0,0 l/m 8,6 km/h (2 Bft) O-NO 65 3 min 371 W/m 4,5 C 7,7 C 20,9 km/h (4 Bft)
01.05.2017 09:18 9,6 C 72 % 1012,0 hPa 0,0 l/m 10,1 km/h (2 Bft) N-NO 31 3 min 360 W/m 4,8 C 7,1 C 22,5 km/h (4 Bft)
01.05.2017 09:21 9,7 C 71 % 1012,0 hPa 0,0 l/m 10,3 km/h (2 Bft) O-NO 64 3 min 313 W/m 4,7 C 7,1 C 22,5 km/h (4 Bft)
01.05.2017 09:24 9,8 C 70 % 1011,9 hPa 0,0 l/m 6,1 km/h (2 Bft) NO 37 3 min 332 W/m 4,6 C 9,8 C 19,3 km/h (3 Bft)
01.05.2017 09:27 10,0 C 69 % 1011,9 hPa 0,0 l/m 12,1 km/h (2 Bft) O-SO 113 3 min 336 W/m 4,6 C 6,5 C 22,5 km/h (4 Bft)
01.05.2017 09:30 10,0 C 69 % 1012,0 hPa 0,0 l/m 8,5 km/h (2 Bft) N-NO 15 3 min 332 W/m 4,6 C 8,5 C 19,3 km/h (3 Bft)
01.05.2017 09:33 10,0 C 69 % 1012,0 hPa 0,0 l/m 10,9 km/h (2 Bft) O 90 0 min 283 W/m 4,6 C 7,1 C 22,5 km/h (4 Bft)
01.05.2017 09:36 10,0 C 70 % 1012,1 hPa 0,0 l/m 8,9 km/h (2 Bft) NO 46 0 min 255 W/m 4,8 C 8,3 C 14,5 km/h (3 Bft)
01.05.2017 09:39 9,9 C 70 % 1012,0 hPa 0,0 l/m 7,9 km/h (2 Bft) O-NO 73 0 min 255 W/m 4,7 C 8,8 C 20,9 km/h (4 Bft)
01.05.2017 09:42 9,9 C 70 % 1012,0 hPa 0,0 l/m 8,7 km/h (2 Bft) NO 45 3 min 352 W/m 4,7 C 8,3 C 24,1 km/h (4 Bft)
01.05.2017 09:45 10,0 C 69 % 1012,0 hPa 0,0 l/m 9,0 km/h (2 Bft) O-SO 108 3 min 352 W/m 4,6 C 8,2 C 22,5 km/h (4 Bft)
01.05.2017 09:48 10,2 C 69 % 1012,1 hPa 0,0 l/m 10,6 km/h (2 Bft) N-NO 13 3 min 362 W/m 4,8 C 7,5 C 27,4 km/h (5 Bft)
01.05.2017 09:51 10,3 C 69 % 1012,0 hPa 0,0 l/m 7,3 km/h (2 Bft) O 80 3 min 367 W/m 4,9 C 9,7 C 19,3 km/h (3 Bft)
01.05.2017 09:54 10,6 C 69 % 1012,0 hPa 0,0 l/m 9,7 km/h (2 Bft) O-NO 78 3 min 404 W/m 5,2 C 8,4 C 25,7 km/h (4 Bft)
01.05.2017 09:57 10,8 C 68 % 1012,1 hPa 0,0 l/m 8,8 km/h (2 Bft) NO 54 3 min 353 W/m 5,1 C 9,2 C 19,3 km/h (3 Bft)
01.05.2017 10:00 10,7 C 67 % 1012,1 hPa 0,0 l/m 11,2 km/h (2 Bft) O-NO 65 3 min 373 W/m 4,8 C 7,7 C 22,5 km/h (4 Bft)
01.05.2017 10:03 10,7 C 68 % 1012,1 hPa 0,0 l/m 6,8 km/h (2 Bft) O-SO 117 3 min 345 W/m 5,0 C 10,4 C 14,5 km/h (3 Bft)
01.05.2017 10:06 10,8 C 68 % 1012,2 hPa 0,0 l/m 8,4 km/h (2 Bft) O 89 3 min 461 W/m 5,1 C 9,4 C 24,1 km/h (4 Bft)
01.05.2017 10:09 10,9 C 67 % 1012,2 hPa 0,0 l/m 8,8 km/h (2 Bft) O-NO 67 3 min 424 W/m 5,0 C 9,3 C 24,1 km/h (4 Bft)
01.05.2017 10:12 11,0 C 66 % 1012,2 hPa 0,0 l/m 8,2 km/h (2 Bft) O 80 3 min 422 W/m 4,9 C 9,8 C 14,5 km/h (3 Bft)
01.05.2017 10:15 11,1 C 67 % 1012,2 hPa 0,0 l/m 6,7 km/h (2 Bft) NO 48 3 min 373 W/m 5,2 C 10,9 C 14,5 km/h (3 Bft)
01.05.2017 10:18 11,2 C 67 % 1012,2 hPa 0,0 l/m 8,1 km/h (2 Bft) O 83 3 min 397 W/m 5,3 C 10,0 C 29,0 km/h (5 Bft)
01.05.2017 10:21 11,3 C 68 % 1012,3 hPa 0,0 l/m 7,9 km/h (2 Bft) O-NO 68 3 min 446 W/m 5,6 C 10,3 C 16,1 km/h (3 Bft)
01.05.2017 10:24 11,4 C 66 % 1012,3 hPa 0,0 l/m 9,8 km/h (2 Bft) NO 43 3 min 448 W/m 5,3 C 9,3 C 20,9 km/h (4 Bft)
01.05.2017 10:27 11,6 C 67 % 1012,2 hPa 0,0 l/m 7,6 km/h (2 Bft) O-NO 61 3 min 443 W/m 5,7 C 10,8 C 22,5 km/h (4 Bft)
01.05.2017 10:30 11,7 C 65 % 1012,3 hPa 0,0 l/m 10,1 km/h (2 Bft) N-NO 26 3 min 445 W/m 5,3 C 9,4 C 25,7 km/h (4 Bft)
01.05.2017 10:33 11,7 C 65 % 1012,3 hPa 0,0 l/m 9,0 km/h (2 Bft) O-SO 113 3 min 424 W/m 5,3 C 10,0 C 20,9 km/h (4 Bft)
01.05.2017 10:36 11,7 C 67 % 1012,4 hPa 0,0 l/m 10,1 km/h (2 Bft) NO 34 3 min 429 W/m 5,8 C 9,4 C 24,1 km/h (4 Bft)
01.05.2017 10:39 11,8 C 69 % 1012,4 hPa 0,0 l/m 6,3 km/h (2 Bft) NO 39 3 min 438 W/m 6,3 C 11,8 C 19,3 km/h (3 Bft)
01.05.2017 10:42 11,8 C 68 % 1012,4 hPa 0,0 l/m 7,6 km/h (2 Bft) O-NO 78 3 min 439 W/m 6,1 C 11,0 C 22,5 km/h (4 Bft)
01.05.2017 10:45 11,8 C 67 % 1012,4 hPa 0,0 l/m 12,1 km/h (2 Bft) NO 56 3 min 380 W/m 5,9 C 8,5 C 27,4 km/h (5 Bft)
01.05.2017 10:48 11,9 C 67 % 1012,5 hPa 0,0 l/m 8,1 km/h (2 Bft) S-SO 148 3 min 385 W/m 6,0 C 10,8 C 22,5 km/h (4 Bft)
01.05.2017 10:51 11,9 C 67 % 1012,4 hPa 0,0 l/m 10,8 km/h (2 Bft) N 360 3 min 466 W/m 6,0 C 9,3 C 22,5 km/h (4 Bft)
01.05.2017 10:54 12,2 C 67 % 1012,4 hPa 0,0 l/m 6,8 km/h (2 Bft) O-NO 76 3 min 526 W/m 6,3 C 11,9 C 14,5 km/h (3 Bft)
01.05.2017 10:57 12,3 C 67 % 1012,3 hPa 0,0 l/m 7,6 km/h (2 Bft) O 97 3 min 483 W/m 6,4 C 11,5 C 20,9 km/h (4 Bft)
01.05.2017 11:00 12,5 C 66 % 1012,5 hPa 0,0 l/m 8,3 km/h (2 Bft) NO 38 3 min 566 W/m 6,3 C 11,3 C 17,7 km/h (3 Bft)
01.05.2017 11:03 12,6 C 66 % 1012,4 hPa 0,0 l/m 9,5 km/h (2 Bft) O 79 3 min 534 W/m 6,4 C 10,7 C 19,3 km/h (3 Bft)
01.05.2017 11:06 12,8 C 66 % 1012,3 hPa 0,0 l/m 6,6 km/h (2 Bft) SO 138 3 min 489 W/m 6,6 C 12,7 C 17,7 km/h (3 Bft)
01.05.2017 11:09 13,1 C 64 % 1012,3 hPa 0,0 l/m 7,2 km/h (2 Bft) N-NW 346 3 min 519 W/m 6,4 C 12,6 C 19,3 km/h (3 Bft)
01.05.2017 11:12 13,1 C 64 % 1012,3 hPa 0,0 l/m 7,9 km/h (2 Bft) NO 48 3 min 563 W/m 6,4 C 12,2 C 19,3 km/h (3 Bft)
01.05.2017 11:15 13,1 C 64 % 1012,2 hPa 0,0 l/m 9,1 km/h (2 Bft) NO 53 3 min 524 W/m 6,4 C 11,5 C 17,7 km/h (3 Bft)
01.05.2017 11:18 12,9 C 64 % 1012,4 hPa 0,0 l/m 9,9 km/h (2 Bft) N-NO 32 3 min 410 W/m 6,3 C 10,8 C 25,7 km/h (4 Bft)
01.05.2017 11:21 12,9 C 65 % 1012,4 hPa 0,0 l/m 6,9 km/h (2 Bft) N-NO 19 3 min 468 W/m 6,5 C 12,6 C 17,7 km/h (3 Bft)
01.05.2017 11:24 13,0 C 64 % 1012,4 hPa 0,0 l/m 9,7 km/h (2 Bft) N-NO 26 3 min 519 W/m 6,4 C 11,1 C 22,5 km/h (4 Bft)
01.05.2017 11:27 13,0 C 64 % 1012,3 hPa 0,0 l/m 7,2 km/h (2 Bft) N-NO 26 3 min 501 W/m 6,4 C 12,5 C 20,9 km/h (4 Bft)
01.05.2017 11:30 13,2 C 65 % 1012,3 hPa 0,0 l/m 7,8 km/h (2 Bft) NO 52 3 min 529 W/m 6,8 C 12,3 C 22,5 km/h (4 Bft)
01.05.2017 11:33 13,3 C 64 % 1012,2 hPa 0,0 l/m 8,0 km/h (2 Bft) N-NW 336 3 min 561 W/m 6,6 C 12,3 C 24,1 km/h (4 Bft)
01.05.2017 11:36 13,4 C 63 % 1012,3 hPa 0,0 l/m 8,4 km/h (2 Bft) NO 54 3 min 559 W/m 6,5 C 12,2 C 25,7 km/h (4 Bft)
01.05.2017 11:39 13,5 C 63 % 1012,3 hPa 0,0 l/m 10,2 km/h (2 Bft) O-NO 57 3 min 543 W/m 6,6 C 11,4 C 17,7 km/h (3 Bft)
01.05.2017 11:42 13,5 C 64 % 1012,3 hPa 0,0 l/m 8,0 km/h (2 Bft) NO 40 3 min 519 W/m 6,8 C 12,5 C 19,3 km/h (3 Bft)
01.05.2017 11:45 13,6 C 63 % 1012,3 hPa 0,0 l/m 8,2 km/h (2 Bft) W-NW 287 3 min 526 W/m 6,7 C 12,5 C 24,1 km/h (4 Bft)
01.05.2017 11:48 13,6 C 64 % 1012,3 hPa 0,0 l/m 9,7 km/h (2 Bft) N-NW 346 3 min 496 W/m 6,9 C 11,7 C 25,7 km/h (4 Bft)
01.05.2017 11:51 13,8 C 65 % 1012,3 hPa 0,0 l/m 5,1 km/h (1 Bft) O 87 3 min 417 W/m 7,3 C 13,8 C 14,5 km/h (3 Bft)
01.05.2017 11:54 13,9 C 65 % 1012,3 hPa 0,0 l/m 7,8 km/h (2 Bft) N-NO 23 3 min 517 W/m 7,4 C 13,1 C 22,5 km/h (4 Bft)
01.05.2017 11:57 13,8 C 64 % 1012,3 hPa 0,0 l/m 9,0 km/h (2 Bft) NO 51 3 min 489 W/m 7,1 C 12,3 C 16,1 km/h (3 Bft)
01.05.2017 12:00 13,9 C 65 % 1012,3 hPa 0,0 l/m 9,2 km/h (2 Bft) O-NO 75 3 min 585 W/m 7,4 C 12,3 C 20,9 km/h (4 Bft)
01.05.2017 12:03 14,1 C 65 % 1012,3 hPa 0,0 l/m 8,5 km/h (2 Bft) NO 35 3 min 571 W/m 7,6 C 12,9 C 16,1 km/h (3 Bft)
01.05.2017 12:06 14,4 C 62 % 1012,3 hPa 0,0 l/m 7,7 km/h (2 Bft) NO 40 3 min 606 W/m 7,2 C 13,6 C 25,7 km/h (4 Bft)
01.05.2017 12:09 14,8 C 63 % 1012,3 hPa 0,0 l/m 7,2 km/h (2 Bft) N-NO 12 3 min 629 W/m 7,8 C 14,3 C 16,1 km/h (3 Bft)
01.05.2017 12:12 14,9 C 61 % 1012,2 hPa 0,0 l/m 8,1 km/h (2 Bft) SO 146 3 min 555 W/m 7,4 C 13,9 C 17,7 km/h (3 Bft)
01.05.2017 12:15 15,0 C 60 % 1012,3 hPa 0,0 l/m 10,2 km/h (2 Bft) NO 51 3 min 489 W/m 7,3 C 13,0 C 20,9 km/h (4 Bft)
01.05.2017 12:18 14,8 C 60 % 1012,2 hPa 0,0 l/m 7,3 km/h (2 Bft) N-NW 333 3 min 547 W/m 7,1 C 14,3 C 17,7 km/h (3 Bft)
01.05.2017 12:21 14,9 C 61 % 1012,2 hPa 0,0 l/m 8,1 km/h (2 Bft) NO 36 3 min 610 W/m 7,4 C 13,9 C 19,3 km/h (3 Bft)
01.05.2017 12:24 15,2 C 59 % 1012,2 hPa 0,0 l/m 8,6 km/h (2 Bft) O 101 3 min 649 W/m 7,2 C 14,0 C 20,9 km/h (4 Bft)
01.05.2017 12:27 15,1 C 59 % 1012,2 hPa 0,0 l/m 11,1 km/h (2 Bft) NO 52 3 min 642 W/m 7,1 C 12,8 C 25,7 km/h (4 Bft)
01.05.2017 12:30 15,1 C 60 % 1012,2 hPa 0,0 l/m 13,1 km/h (3 Bft) N 360 3 min 652 W/m 7,4 C 12,0 C 20,9 km/h (4 Bft)
01.05.2017 12:33 15,3 C 58 % 1012,2 hPa 0,0 l/m 8,8 km/h (2 Bft) O-NO 77 3 min 679 W/m 7,1 C 14,0 C 17,7 km/h (3 Bft)
01.05.2017 12:36 15,4 C 59 % 1012,3 hPa 0,0 l/m 8,8 km/h (2 Bft) O-SO 114 3 min 679 W/m 7,4 C 14,1 C 22,5 km/h (4 Bft)
01.05.2017 12:39 15,6 C 58 % 1012,2 hPa 0,0 l/m 10,2 km/h (2 Bft) NO 49 3 min 559 W/m 7,4 C 13,7 C 22,5 km/h (4 Bft)
01.05.2017 12:42 15,6 C 59 % 1012,2 hPa 0,0 l/m 6,5 km/h (2 Bft) SO 135 3 min 476 W/m 7,6 C 15,6 C 17,7 km/h (3 Bft)
01.05.2017 12:45 15,6 C 59 % 1012,1 hPa 0,0 l/m 9,3 km/h (2 Bft) O-NO 61 3 min 696 W/m 7,6 C 14,1 C 19,3 km/h (3 Bft)
01.05.2017 12:48 15,6 C 58 % 1012,1 hPa 0,0 l/m 10,4 km/h (2 Bft) O-NO 73 3 min 694 W/m 7,4 C 13,6 C 24,1 km/h (4 Bft)
01.05.2017 12:51 15,6 C 58 % 1012,1 hPa 0,0 l/m 9,2 km/h (2 Bft) O-NO 78 3 min 721 W/m 7,4 C 14,1 C 20,9 km/h (4 Bft)
01.05.2017 12:54 15,9 C 58 % 1012,1 hPa 0,0 l/m 10,2 km/h (2 Bft) O-NO 58 3 min 696 W/m 7,6 C 14,0 C 24,1 km/h (4 Bft)
01.05.2017 12:57 15,8 C 56 % 1012,1 hPa 0,0 l/m 12,9 km/h (3 Bft) N 355 3 min 754 W/m 7,0 C 12,9 C 24,1 km/h (4 Bft)
01.05.2017 13:00 15,7 C 57 % 1012,1 hPa 0,0 l/m 9,8 km/h (2 Bft) O-NO 76 3 min 738 W/m 7,2 C 14,0 C 22,5 km/h (4 Bft)
01.05.2017 13:03 16,0 C 59 % 1012,2 hPa 0,0 l/m 8,3 km/h (2 Bft) NO 51 3 min 729 W/m 8,0 C 15,0 C 22,5 km/h (4 Bft)
01.05.2017 13:06 16,1 C 58 % 1012,1 hPa 0,0 l/m 10,7 km/h (2 Bft) O 92 3 min 744 W/m 7,8 C 14,0 C 25,7 km/h (4 Bft)
01.05.2017 13:09 16,2 C 59 % 1012,3 hPa 0,0 l/m 10,2 km/h (2 Bft) O-SO 119 3 min 714 W/m 8,2 C 14,4 C 25,7 km/h (4 Bft)
01.05.2017 13:12 16,1 C 56 % 1012,2 hPa 0,0 l/m 9,5 km/h (2 Bft) N 360 3 min 577 W/m 7,3 C 14,6 C 22,5 km/h (4 Bft)
01.05.2017 13:15 15,9 C 58 % 1012,2 hPa 0,0 l/m 8,7 km/h (2 Bft) NO 46 3 min 592 W/m 7,6 C 14,7 C 19,3 km/h (3 Bft)
01.05.2017 13:18 15,8 C 58 % 1012,2 hPa 0,0 l/m 10,4 km/h (2 Bft) N-NO 16 3 min 624 W/m 7,6 C 13,8 C 30,6 km/h (5 Bft)
01.05.2017 13:21 15,8 C 59 % 1012,3 hPa 0,0 l/m 9,1 km/h (2 Bft) NO 48 3 min 622 W/m 7,8 C 14,4 C 19,3 km/h (3 Bft)
01.05.2017 13:24 15,6 C 58 % 1012,2 hPa 0,0 l/m 11,5 km/h (2 Bft) NO 40 3 min 675 W/m 7,4 C 13,2 C 24,1 km/h (4 Bft)
01.05.2017 13:27 15,6 C 59 % 1012,1 hPa 0,0 l/m 10,6 km/h (2 Bft) SO 130 3 min 608 W/m 7,6 C 13,5 C 22,5 km/h (4 Bft)
01.05.2017 13:30 15,8 C 59 % 1012,1 hPa 0,0 l/m 8,0 km/h (2 Bft) NO 56 3 min 698 W/m 7,8 C 14,9 C 20,9 km/h (4 Bft)
01.05.2017 13:33 15,9 C 59 % 1012,0 hPa 0,0 l/m 9,2 km/h (2 Bft) O-SO 107 3 min 721 W/m 7,9 C 14,5 C 22,5 km/h (4 Bft)
01.05.2017 13:36 16,1 C 57 % 1012,0 hPa 0,0 l/m 10,0 km/h (2 Bft) NO 46 3 min 772 W/m 7,6 C 14,3 C 22,5 km/h (4 Bft)
01.05.2017 13:39 16,1 C 56 % 1012,1 hPa 0,0 l/m 12,6 km/h (3 Bft) N 360 3 min 721 W/m 7,3 C 13,3 C 25,7 km/h (4 Bft)
01.05.2017 13:42 16,1 C 58 % 1012,1 hPa 0,0 l/m 10,2 km/h (2 Bft) NO 34 3 min 684 W/m 7,8 C 14,2 C 19,3 km/h (3 Bft)
01.05.2017 13:45 16,3 C 57 % 1012,0 hPa 0,0 l/m 8,3 km/h (2 Bft) N 11 3 min 640 W/m 7,8 C 15,3 C 29,0 km/h (5 Bft)
01.05.2017 13:48 16,3 C 58 % 1012,1 hPa 0,0 l/m 8,8 km/h (2 Bft) SO 131 3 min 686 W/m 8,0 C 15,1 C 20,9 km/h (4 Bft)
01.05.2017 13:51 16,1 C 57 % 1012,1 hPa 0,0 l/m 10,6 km/h (2 Bft) SO 130 3 min 577 W/m 7,6 C 14,1 C 22,5 km/h (4 Bft)
01.05.2017 13:54 15,9 C 58 % 1012,1 hPa 0,0 l/m 11,4 km/h (2 Bft) NO 54 3 min 529 W/m 7,6 C 13,5 C 27,4 km/h (5 Bft)
01.05.2017 13:57 15,9 C 58 % 1012,1 hPa 0,0 l/m 8,8 km/h (2 Bft) O 83 3 min 729 W/m 7,6 C 14,7 C 17,7 km/h (3 Bft)
01.05.2017 14:00 16,2 C 57 % 1012,2 hPa 0,0 l/m 10,3 km/h (2 Bft) NO 35 3 min 671 W/m 7,7 C 14,3 C 24,1 km/h (4 Bft)
01.05.2017 14:03 16,2 C 56 % 1012,1 hPa 0,0 l/m 10,4 km/h (2 Bft) N-NO 24 3 min 615 W/m 7,4 C 14,3 C 19,3 km/h (3 Bft)
01.05.2017 14:06 16,0 C 58 % 1012,0 hPa 0,0 l/m 11,5 km/h (2 Bft) O-NO 57 3 min 457 W/m 7,7 C 13,6 C 24,1 km/h (4 Bft)
01.05.2017 14:09 15,9 C 56 % 1012,1 hPa 0,0 l/m 8,0 km/h (2 Bft) N-NO 32 3 min 568 W/m 7,1 C 15,0 C 19,3 km/h (3 Bft)
01.05.2017 14:12 16,0 C 57 % 1012,1 hPa 0,0 l/m 10,6 km/h (2 Bft) NO 40 3 min 650 W/m 7,5 C 14,0 C 22,5 km/h (4 Bft)
01.05.2017 14:15 15,9 C 58 % 1012,1 hPa 0,0 l/m 9,5 km/h (2 Bft) N-NO 18 3 min 650 W/m 7,6 C 14,3 C 19,3 km/h (3 Bft)
01.05.2017 14:18 15,9 C 57 % 1012,1 hPa 0,0 l/m 10,3 km/h (2 Bft) O 87 0 min 323 W/m 7,4 C 14,0 C 24,1 km/h (4 Bft)
01.05.2017 14:21 15,7 C 59 % 1012,1 hPa 0,0 l/m 9,1 km/h (2 Bft) O-NO 63 3 min 519 W/m 7,7 C 14,3 C 20,9 km/h (4 Bft)
01.05.2017 14:24 15,8 C 58 % 1012,0 hPa 0,0 l/m 10,9 km/h (2 Bft) NO 47 0 min 287 W/m 7,6 C 13,6 C 22,5 km/h (4 Bft)
01.05.2017 14:27 15,8 C 58 % 1012,1 hPa 0,0 l/m 10,7 km/h (2 Bft) NO 52 0 min 339 W/m 7,6 C 13,7 C 20,9 km/h (4 Bft)
01.05.2017 14:30 15,7 C 57 % 1012,2 hPa 0,0 l/m 9,3 km/h (2 Bft) W-NW 283 0 min 338 W/m 7,2 C 14,2 C 30,6 km/h (5 Bft)
01.05.2017 14:33 15,8 C 59 % 1012,1 hPa 0,0 l/m 8,0 km/h (2 Bft) NO 45 3 min 461 W/m 7,8 C 14,9 C 16,1 km/h (3 Bft)
01.05.2017 14:36 15,9 C 58 % 1012,1 hPa 0,0 l/m 8,6 km/h (2 Bft) NO 45 3 min 501 W/m 7,6 C 14,8 C 16,1 km/h (3 Bft)
01.05.2017 14:39 15,8 C 58 % 1012,2 hPa 0,0 l/m 9,2 km/h (2 Bft) O-SO 121 0 min 213 W/m 7,6 C 14,4 C 20,9 km/h (4 Bft)
01.05.2017 14:42 15,6 C 58 % 1012,2 hPa 0,0 l/m 7,7 km/h (2 Bft) O-NO 59 0 min 285 W/m 7,4 C 14,9 C 22,5 km/h (4 Bft)
01.05.2017 14:45 15,5 C 58 % 1012,1 hPa 0,0 l/m 10,4 km/h (2 Bft) O 79 0 min 308 W/m 7,3 C 13,5 C 29,0 km/h (5 Bft)
01.05.2017 14:48 15,5 C 59 % 1012,2 hPa 0,0 l/m 9,4 km/h (2 Bft) O-NO 63 0 min 325 W/m 7,5 C 13,9 C 22,5 km/h (4 Bft)
01.05.2017 14:51 15,7 C 58 % 1012,2 hPa 0,0 l/m 8,9 km/h (2 Bft) N-NO 24 0 min 229 W/m 7,5 C 14,4 C 25,7 km/h (4 Bft)
01.05.2017 14:54 15,5 C 58 % 1012,2 hPa 0,0 l/m 9,0 km/h (2 Bft) O-NO 57 0 min 155 W/m 7,3 C 14,1 C 20,9 km/h (4 Bft)
01.05.2017 14:57 15,2 C 59 % 1012,2 hPa 0,0 l/m 11,2 km/h (2 Bft) NW 326 0 min 197 W/m 7,2 C 12,8 C 22,5 km/h (4 Bft)
01.05.2017 15:00 15,1 C 60 % 1012,1 hPa 0,0 l/m 8,1 km/h (2 Bft) O-NO 74 0 min 267 W/m 7,4 C 14,2 C 19,3 km/h (3 Bft)
01.05.2017 15:03 15,2 C 60 % 1012,2 hPa 0,0 l/m 7,4 km/h (2 Bft) NO 45 0 min 185 W/m 7,5 C 14,6 C 19,3 km/h (3 Bft)
01.05.2017 15:06 15,2 C 58 % 1012,2 hPa 0,0 l/m 7,1 km/h (2 Bft) N 11 0 min 123 W/m 7,0 C 14,8 C 20,9 km/h (4 Bft)
01.05.2017 15:09 15,1 C 59 % 1012,3 hPa 0,0 l/m 9,0 km/h (2 Bft) N-NO 18 0 min 123 W/m 7,1 C 13,7 C 22,5 km/h (4 Bft)
01.05.2017 15:12 14,8 C 60 % 1012,3 hPa 0,0 l/m 7,1 km/h (2 Bft) S 178 0 min 179 W/m 7,1 C 14,4 C 17,7 km/h (3 Bft)
01.05.2017 15:15 14,8 C 62 % 1012,3 hPa 0,0 l/m 8,5 km/h (2 Bft) O 84 0 min 197 W/m 7,6 C 13,6 C 20,9 km/h (4 Bft)
01.05.2017 15:18 14,8 C 61 % 1012,2 hPa 0,0 l/m 9,1 km/h (2 Bft) NW 325 0 min 302 W/m 7,4 C 13,3 C 24,1 km/h (4 Bft)
01.05.2017 15:21 15,1 C 60 % 1012,3 hPa 0,0 l/m 8,0 km/h (2 Bft) SO 134 0 min 302 W/m 7,4 C 14,2 C 14,5 km/h (3 Bft)
01.05.2017 15:24 15,3 C 58 % 1012,3 hPa 0,0 l/m 9,9 km/h (2 Bft) O-SO 109 0 min 332 W/m 7,1 C 13,5 C 22,5 km/h (4 Bft)
01.05.2017 15:27 15,4 C 60 % 1012,4 hPa 0,0 l/m 8,5 km/h (2 Bft) O-NO 78 0 min 211 W/m 7,7 C 14,3 C 19,3 km/h (3 Bft)
01.05.2017 15:30 15,4 C 59 % 1012,3 hPa 0,0 l/m 8,5 km/h (2 Bft) NO 48 0 min 190 W/m 7,4 C 14,3 C 20,9 km/h (4 Bft)
01.05.2017 15:33 15,3 C 60 % 1012,3 hPa 0,0 l/m 6,4 km/h (2 Bft) O-NO 67 0 min 197 W/m 7,6 C 15,3 C 16,1 km/h (3 Bft)
01.05.2017 15:36 15,3 C 61 % 1012,3 hPa 0,0 l/m 9,0 km/h (2 Bft) O-NO 62 0 min 197 W/m 7,8 C 13,9 C 27,4 km/h (5 Bft)
01.05.2017 15:39 15,1 C 60 % 1012,3 hPa 0,0 l/m 8,7 km/h (2 Bft) SO 128 0 min 176 W/m 7,4 C 13,8 C 16,1 km/h (3 Bft)
01.05.2017 15:42 15,1 C 61 % 1012,3 hPa 0,0 l/m 8,8 km/h (2 Bft) O-NO 74 0 min 200 W/m 7,6 C 13,8 C 20,9 km/h (4 Bft)
01.05.2017 15:45 15,1 C 62 % 1012,4 hPa 0,0 l/m 7,3 km/h (2 Bft) O-NO 76 0 min 239 W/m 7,9 C 14,6 C 22,5 km/h (4 Bft)
01.05.2017 15:48 15,1 C 61 % 1012,4 hPa 0,0 l/m 9,7 km/h (2 Bft) N-NO 12 0 min 264 W/m 7,6 C 13,4 C 20,9 km/h (4 Bft)
01.05.2017 15:51 15,2 C 62 % 1012,4 hPa 0,0 l/m 9,9 km/h (2 Bft) O-NO 77 3 min 390 W/m 8,0 C 13,4 C 17,7 km/h (3 Bft)
01.05.2017 15:54 15,3 C 63 % 1012,5 hPa 0,0 l/m 6,6 km/h (2 Bft) N 355 0 min 334 W/m 8,3 C 15,2 C 17,7 km/h (3 Bft)
01.05.2017 15:57 15,4 C 60 % 1012,4 hPa 0,0 l/m 11,1 km/h (2 Bft) NO 54 0 min 318 W/m 7,7 C 13,1 C 20,9 km/h (4 Bft)
01.05.2017 16:00 15,6 C 61 % 1012,5 hPa 0,0 l/m 9,1 km/h (2 Bft) N-NO 15 0 min 302 W/m 8,1 C 14,2 C 19,3 km/h (3 Bft)
01.05.2017 16:03 15,7 C 60 % 1012,5 hPa 0,0 l/m 8,5 km/h (2 Bft) O-NO 76 0 min 241 W/m 8,0 C 14,6 C 16,1 km/h (3 Bft)
01.05.2017 16:06 15,6 C 58 % 1012,5 hPa 0,0 l/m 7,5 km/h (2 Bft) NO 36 0 min 251 W/m 7,4 C 15,0 C 19,3 km/h (3 Bft)
01.05.2017 16:09 15,6 C 59 % 1012,5 hPa 0,0 l/m 7,7 km/h (2 Bft) O 93 0 min 287 W/m 7,6 C 14,9 C 22,5 km/h (4 Bft)
01.05.2017 16:12 15,5 C 59 % 1012,5 hPa 0,0 l/m 8,9 km/h (2 Bft) N-NO 26 0 min 174 W/m 7,5 C 14,2 C 20,9 km/h (4 Bft)
01.05.2017 16:15 15,4 C 61 % 1012,5 hPa 0,0 l/m 5,2 km/h (1 Bft) NO 38 0 min 172 W/m 7,9 C 15,4 C 17,7 km/h (3 Bft)
01.05.2017 16:18 15,3 C 62 % 1012,5 hPa 0,0 l/m 7,0 km/h (2 Bft) N 11 0 min 209 W/m 8,1 C 15,0 C 16,1 km/h (3 Bft)
01.05.2017 16:21 15,2 C 61 % 1012,6 hPa 0,0 l/m 8,5 km/h (2 Bft) O-NO 58 0 min 171 W/m 7,7 C 14,1 C 17,7 km/h (3 Bft)
01.05.2017 16:24 15,2 C 61 % 1012,5 hPa 0,0 l/m 8,2 km/h (2 Bft) O-NO 65 0 min 171 W/m 7,7 C 14,2 C 24,1 km/h (4 Bft)
01.05.2017 16:27 15,2 C 61 % 1012,6 hPa 0,0 l/m 7,8 km/h (2 Bft) NO 52 0 min 128 W/m 7,7 C 14,4 C 19,3 km/h (3 Bft)
01.05.2017 16:30 15,2 C 62 % 1012,5 hPa 0,0 l/m 6,9 km/h (2 Bft) O-NO 61 0 min 128 W/m 8,0 C 14,9 C 17,7 km/h (3 Bft)
01.05.2017 16:33 15,1 C 62 % 1012,6 hPa 0,0 l/m 6,6 km/h (2 Bft) NO 44 0 min 172 W/m 7,9 C 15,0 C 12,9 km/h (3 Bft)
01.05.2017 16:36 15,0 C 62 % 1012,6 hPa 0,0 l/m 7,5 km/h (2 Bft) O-NO 59 0 min 190 W/m 7,8 C 14,4 C 16,1 km/h (3 Bft)
01.05.2017 16:39 15,1 C 61 % 1012,6 hPa 0,0 l/m 6,9 km/h (2 Bft) N-NO 29 0 min 216 W/m 7,6 C 14,8 C 17,7 km/h (3 Bft)
01.05.2017 16:42 15,1 C 62 % 1012,6 hPa 0,0 l/m 6,3 km/h (2 Bft) NO 47 0 min 211 W/m 7,9 C 15,1 C 17,7 km/h (3 Bft)
01.05.2017 16:45 15,2 C 62 % 1012,6 hPa 0,0 l/m 8,6 km/h (2 Bft) O-NO 63 0 min 130 W/m 8,0 C 14,0 C 17,7 km/h (3 Bft)
01.05.2017 16:48 15,2 C 59 % 1012,6 hPa 0,0 l/m 9,9 km/h (2 Bft) O-SO 111 0 min 105 W/m 7,2 C 13,4 C 24,1 km/h (4 Bft)
01.05.2017 16:51 15,0 C 61 % 1012,6 hPa 0,0 l/m 10,0 km/h (2 Bft) NO 46 0 min 88 W/m 7,5 C 13,1 C 22,5 km/h (4 Bft)
01.05.2017 16:54 14,8 C 62 % 1012,6 hPa 0,0 l/m 6,6 km/h (2 Bft) O-SO 105 0 min 111 W/m 7,6 C 14,7 C 16,1 km/h (3 Bft)
01.05.2017 16:57 14,7 C 62 % 1012,6 hPa 0,0 l/m 8,9 km/h (2 Bft) O-NO 72 0 min 169 W/m 7,5 C 13,3 C 17,7 km/h (3 Bft)
01.05.2017 17:00 14,7 C 64 % 1012,7 hPa 0,0 l/m 5,9 km/h (2 Bft) W-NW 301 0 min 199 W/m 8,0 C 14,7 C 11,3 km/h (2 Bft)
01.05.2017 17:03 14,9 C 62 % 1012,7 hPa 0,0 l/m 7,3 km/h (2 Bft) O-NO 71 0 min 200 W/m 7,7 C 14,4 C 19,3 km/h (3 Bft)
01.05.2017 17:06 15,1 C 62 % 1012,7 hPa 0,0 l/m 7,7 km/h (2 Bft) O 100 0 min 190 W/m 7,9 C 14,4 C 17,7 km/h (3 Bft)
01.05.2017 17:09 15,1 C 62 % 1012,8 hPa 0,0 l/m 8,9 km/h (2 Bft) N-NO 32 0 min 185 W/m 7,9 C 13,7 C 20,9 km/h (4 Bft)
01.05.2017 17:12 15,2 C 61 % 1012,7 hPa 0,0 l/m 7,6 km/h (2 Bft) NO 53 0 min 190 W/m 7,7 C 14,5 C 19,3 km/h (3 Bft)
01.05.2017 17:15 15,1 C 62 % 1012,8 hPa 0,0 l/m 8,9 km/h (2 Bft) NO 46 0 min 158 W/m 7,9 C 13,7 C 17,7 km/h (3 Bft)
01.05.2017 17:18 15,1 C 61 % 1012,7 hPa 0,0 l/m 4,7 km/h (1 Bft) NO 52 0 min 144 W/m 7,6 C 15,1 C 11,3 km/h (2 Bft)
01.05.2017 17:21 15,1 C 61 % 1012,8 hPa 0,0 l/m 9,3 km/h (2 Bft) O-NO 64 0 min 100 W/m 7,6 C 13,6 C 25,7 km/h (4 Bft)
01.05.2017 17:24 15,0 C 61 % 1012,8 hPa 0,0 l/m 9,4 km/h (2 Bft) N-NO 24 0 min 118 W/m 7,5 C 13,4 C 22,5 km/h (4 Bft)
01.05.2017 17:27 14,9 C 62 % 1012,9 hPa 0,0 l/m 8,5 km/h (2 Bft) NO 44 0 min 134 W/m 7,7 C 13,7 C 17,7 km/h (3 Bft)
01.05.2017 17:30 14,9 C 62 % 1012,9 hPa 0,0 l/m 7,2 km/h (2 Bft) SO 132 0 min 148 W/m 7,7 C 14,4 C 19,3 km/h (3 Bft)
01.05.2017 17:33 14,8 C 64 % 1012,9 hPa 0,0 l/m 6,3 km/h (2 Bft) N-NO 26 0 min 167 W/m 8,1 C 14,8 C 11,3 km/h (2 Bft)
01.05.2017 17:36 14,8 C 64 % 1012,9 hPa 0,0 l/m 7,6 km/h (2 Bft) NO 42 0 min 151 W/m 8,1 C 14,1 C 19,3 km/h (3 Bft)
01.05.2017 17:39 14,8 C 65 % 1012,9 hPa 0,0 l/m 7,0 km/h (2 Bft) O 96 0 min 118 W/m 8,3 C 14,5 C 14,5 km/h (3 Bft)
01.05.2017 17:42 14,8 C 65 % 1012,9 hPa 0,0 l/m 8,8 km/h (2 Bft) O-NO 63 0 min 98 W/m 8,3 C 13,5 C 20,9 km/h (4 Bft)
01.05.2017 17:45 14,7 C 65 % 1013,0 hPa 0,0 l/m 6,9 km/h (2 Bft) NO 35 0 min 98 W/m 8,2 C 14,4 C 11,3 km/h (2 Bft)
01.05.2017 17:48 14,6 C 65 % 1013,0 hPa 0,0 l/m 9,4 km/h (2 Bft) N 360 0 min 116 W/m 8,1 C 13,0 C 17,7 km/h (3 Bft)
01.05.2017 17:51 14,6 C 65 % 1013,0 hPa 0,0 l/m 7,2 km/h (2 Bft) O 96 0 min 111 W/m 8,1 C 14,1 C 14,5 km/h (3 Bft)
01.05.2017 17:54 14,6 C 65 % 1013,0 hPa 0,0 l/m 5,5 km/h (2 Bft) NO 49 0 min 102 W/m 8,1 C 14,6 C 12,9 km/h (3 Bft)
01.05.2017 17:57 14,6 C 65 % 1013,1 hPa 0,0 l/m 6,3 km/h (2 Bft) O-NO 61 0 min 111 W/m 8,1 C 14,6 C 16,1 km/h (3 Bft)
01.05.2017 18:00 14,5 C 65 % 1013,1 hPa 0,0 l/m 7,3 km/h (2 Bft) NO 53 0 min 123 W/m 8,0 C 14,0 C 14,5 km/h (3 Bft)
01.05.2017 18:03 14,4 C 66 % 1013,0 hPa 0,0 l/m 6,7 km/h (2 Bft) O-SO 103 0 min 116 W/m 8,1 C 14,2 C 12,9 km/h (3 Bft)
01.05.2017 18:06 14,4 C 66 % 1013,1 hPa 0,0 l/m 6,6 km/h (2 Bft) O 85 0 min 105 W/m 8,1 C 14,3 C 17,7 km/h (3 Bft)
01.05.2017 18:09 14,4 C 67 % 1013,0 hPa 0,0 l/m 6,5 km/h (2 Bft) N-NO 24 0 min 104 W/m 8,4 C 14,4 C 20,9 km/h (4 Bft)
01.05.2017 18:12 14,3 C 67 % 1013,2 hPa 0,0 l/m 8,2 km/h (2 Bft) NO 51 0 min 111 W/m 8,3 C 13,3 C 16,1 km/h (3 Bft)
01.05.2017 18:15 14,2 C 68 % 1013,2 hPa 0,0 l/m 7,6 km/h (2 Bft) W-NW 294 0 min 102 W/m 8,4 C 13,5 C 20,9 km/h (4 Bft)
01.05.2017 18:18 14,2 C 68 % 1013,2 hPa 0,0 l/m 6,8 km/h (2 Bft) O-NO 76 0 min 86 W/m 8,4 C 14,0 C 14,5 km/h (3 Bft)
01.05.2017 18:21 14,2 C 68 % 1013,1 hPa 0,0 l/m 7,0 km/h (2 Bft) O 92 0 min 102 W/m 8,4 C 13,8 C 14,5 km/h (3 Bft)
01.05.2017 18:24 14,2 C 68 % 1013,2 hPa 0,0 l/m 9,6 km/h (2 Bft) O-NO 70 0 min 111 W/m 8,4 C 12,4 C 19,3 km/h (3 Bft)
01.05.2017 18:27 14,2 C 68 % 1013,2 hPa 0,0 l/m 6,3 km/h (2 Bft) O 95 0 min 102 W/m 8,4 C 14,2 C 12,9 km/h (3 Bft)
01.05.2017 18:30 14,2 C 67 % 1013,2 hPa 0,0 l/m 10,1 km/h (2 Bft) N-NO 28 0 min 111 W/m 8,2 C 12,2 C 22,5 km/h (4 Bft)
01.05.2017 18:33 14,2 C 68 % 1013,2 hPa 0,0 l/m 8,4 km/h (2 Bft) NO 34 0 min 127 W/m 8,4 C 13,0 C 17,7 km/h (3 Bft)
01.05.2017 18:36 14,2 C 68 % 1013,2 hPa 0,0 l/m 10,5 km/h (2 Bft) NO 38 0 min 123 W/m 8,4 C 12,0 C 22,5 km/h (4 Bft)
01.05.2017 18:39 14,2 C 68 % 1013,2 hPa 0,0 l/m 9,9 km/h (2 Bft) O-NO 78 0 min 114 W/m 8,4 C 12,3 C 22,5 km/h (4 Bft)
01.05.2017 18:42 14,1 C 68 % 1013,2 hPa 0,0 l/m 7,8 km/h (2 Bft) N-NO 32 0 min 100 W/m 8,3 C 13,3 C 17,7 km/h (3 Bft)
01.05.2017 18:45 14,1 C 69 % 1013,3 hPa 0,0 l/m 8,0 km/h (2 Bft) NO 53 0 min 104 W/m 8,5 C 13,2 C 16,1 km/h (3 Bft)
01.05.2017 18:48 14,1 C 68 % 1013,3 hPa 0,0 l/m 8,6 km/h (2 Bft) N-NO 32 0 min 97 W/m 8,3 C 12,8 C 17,7 km/h (3 Bft)
01.05.2017 18:51 14,0 C 68 % 1013,3 hPa 0,0 l/m 8,5 km/h (2 Bft) NO 56 0 min 97 W/m 8,2 C 12,8 C 20,9 km/h (4 Bft)
01.05.2017 18:54 13,9 C 68 % 1013,3 hPa 0,0 l/m 9,0 km/h (2 Bft) N-NO 19 0 min 84 W/m 8,1 C 12,4 C 17,7 km/h (3 Bft)
01.05.2017 18:57 13,9 C 68 % 1013,3 hPa 0,0 l/m 11,9 km/h (2 Bft) N 5 0 min 74 W/m 8,1 C 11,0 C 29,0 km/h (5 Bft)
01.05.2017 19:00 13,8 C 67 % 1013,3 hPa 0,0 l/m 11,5 km/h (2 Bft) NO 44 0 min 65 W/m 7,8 C 11,1 C 27,4 km/h (5 Bft)
01.05.2017 19:03 13,8 C 68 % 1013,4 hPa 0,0 l/m 12,7 km/h (3 Bft) NO 53 0 min 58 W/m 8,0 C 10,6 C 22,5 km/h (4 Bft)
01.05.2017 19:06 13,7 C 68 % 1013,4 hPa 0,0 l/m 8,7 km/h (2 Bft) O 101 0 min 62 W/m 7,9 C 12,3 C 24,1 km/h (4 Bft)
01.05.2017 19:09 13,7 C 68 % 1013,4 hPa 0,0 l/m 8,5 km/h (2 Bft) N-NW 348 0 min 67 W/m 7,9 C 12,5 C 25,7 km/h (4 Bft)
01.05.2017 19:12 13,6 C 68 % 1013,4 hPa 0,0 l/m 9,6 km/h (2 Bft) NO 34 0 min 63 W/m 7,8 C 11,8 C 25,7 km/h (4 Bft)
01.05.2017 19:15 13,5 C 68 % 1013,5 hPa 0,0 l/m 9,7 km/h (2 Bft) N-NO 28 0 min 60 W/m 7,7 C 11,6 C 22,5 km/h (4 Bft)
01.05.2017 19:18 13,4 C 68 % 1013,5 hPa 0,0 l/m 9,9 km/h (2 Bft) N 355 0 min 53 W/m 7,6 C 11,4 C 25,7 km/h (4 Bft)
01.05.2017 19:21 13,4 C 68 % 1013,5 hPa 0,0 l/m 11,4 km/h (2 Bft) O-SO 110 0 min 51 W/m 7,6 C 10,7 C 19,3 km/h (3 Bft)
01.05.2017 19:24 13,3 C 69 % 1013,6 hPa 0,0 l/m 8,5 km/h (2 Bft) O-NO 63 0 min 51 W/m 7,7 C 12,0 C 20,9 km/h (4 Bft)
01.05.2017 19:27 13,2 C 69 % 1013,6 hPa 0,0 l/m 9,3 km/h (2 Bft) N-NO 33 0 min 44 W/m 7,6 C 11,5 C 20,9 km/h (4 Bft)
01.05.2017 19:30 13,2 C 69 % 1013,7 hPa 0,0 l/m 11,9 km/h (2 Bft) O 82 0 min 42 W/m 7,6 C 10,2 C 25,7 km/h (4 Bft)
01.05.2017 19:33 13,1 C 69 % 1013,8 hPa 0,0 l/m 10,3 km/h (2 Bft) O-SO 116 0 min 44 W/m 7,5 C 10,9 C 25,7 km/h (4 Bft)
01.05.2017 19:36 13,0 C 69 % 1013,8 hPa 0,0 l/m 10,1 km/h (2 Bft) O-NO 67 0 min 47 W/m 7,4 C 10,9 C 24,1 km/h (4 Bft)
01.05.2017 19:39 13,0 C 70 % 1014,0 hPa 0,0 l/m 9,3 km/h (2 Bft) N-NO 31 0 min 47 W/m 7,7 C 11,3 C 19,3 km/h (3 Bft)
01.05.2017 19:42 12,9 C 70 % 1014,0 hPa 0,0 l/m 10,0 km/h (2 Bft) N 10 0 min 42 W/m 7,6 C 10,8 C 24,1 km/h (4 Bft)
01.05.2017 19:45 12,9 C 71 % 1014,0 hPa 0,0 l/m 10,0 km/h (2 Bft) N-NO 30 0 min 32 W/m 7,8 C 10,8 C 17,7 km/h (3 Bft)
01.05.2017 19:48 12,9 C 71 % 1014,1 hPa 0,0 l/m 9,5 km/h (2 Bft) O-NO 63 0 min 23 W/m 7,8 C 11,1 C 29,0 km/h (5 Bft)
01.05.2017 19:51 12,8 C 71 % 1014,1 hPa 0,0 l/m 10,2 km/h (2 Bft) NO 40 0 min 25 W/m 7,7 C 10,6 C 19,3 km/h (3 Bft)
01.05.2017 19:54 12,8 C 70 % 1014,1 hPa 0,0 l/m 10,3 km/h (2 Bft) NO 55 0 min 26 W/m 7,5 C 10,5 C 19,3 km/h (3 Bft)
01.05.2017 19:57 12,8 C 70 % 1014,2 hPa 0,0 l/m 12,4 km/h (2 Bft) O 99 0 min 26 W/m 7,5 C 9,6 C 30,6 km/h (5 Bft)
01.05.2017 20:00 12,8 C 70 % 1014,1 hPa 0,0 l/m 11,2 km/h (2 Bft) O-NO 77 0 min 28 W/m 7,5 C 10,1 C 27,4 km/h (5 Bft)
01.05.2017 20:03 12,8 C 70 % 1014,2 hPa 0,0 l/m 10,6 km/h (2 Bft) NO 55 0 min 26 W/m 7,5 C 10,4 C 20,9 km/h (4 Bft)
01.05.2017 20:06 12,7 C 70 % 1014,2 hPa 0,0 l/m 8,8 km/h (2 Bft) NO 34 0 min 23 W/m 7,4 C 11,2 C 17,7 km/h (3 Bft)
01.05.2017 20:09 12,7 C 70 % 1014,3 hPa 0,0 l/m 9,1 km/h (2 Bft) N-NO 30 0 min 18 W/m 7,4 C 11,1 C 19,3 km/h (3 Bft)
01.05.2017 20:12 12,7 C 70 % 1014,3 hPa 0,0 l/m 13,2 km/h (3 Bft) N 9 0 min 16 W/m 7,4 C 9,1 C 24,1 km/h (4 Bft)
01.05.2017 20:15 12,7 C 70 % 1014,4 hPa 0,0 l/m 8,3 km/h (2 Bft) NO 44 0 min 16 W/m 7,4 C 11,5 C 22,5 km/h (4 Bft)
01.05.2017 20:18 12,6 C 71 % 1014,3 hPa 0,0 l/m 10,6 km/h (2 Bft) O-NO 61 0 min 16 W/m 7,5 C 10,2 C 27,4 km/h (5 Bft)
01.05.2017 20:21 12,5 C 70 % 1014,5 hPa 0,0 l/m 10,3 km/h (2 Bft) NO 44 0 min 14 W/m 7,2 C 10,2 C 22,5 km/h (4 Bft)
01.05.2017 20:24 12,4 C 71 % 1014,5 hPa 0,0 l/m 9,5 km/h (2 Bft) O 101 0 min 12 W/m 7,3 C 10,5 C 22,5 km/h (4 Bft)
01.05.2017 20:27 12,4 C 71 % 1014,5 hPa 0,0 l/m 9,1 km/h (2 Bft) N-NO 15 0 min 11 W/m 7,3 C 10,7 C 19,3 km/h (3 Bft)
01.05.2017 20:30 12,3 C 72 % 1014,6 hPa 0,0 l/m 8,2 km/h (2 Bft) N-NO 27 0 min 9 W/m 7,4 C 11,1 C 22,5 km/h (4 Bft)
01.05.2017 20:33 12,3 C 72 % 1014,6 hPa 0,0 l/m 9,0 km/h (2 Bft) NO 40 0 min 9 W/m 7,4 C 10,7 C 17,7 km/h (3 Bft)
01.05.2017 20:36 12,2 C 72 % 1014,7 hPa 0,0 l/m 10,3 km/h (2 Bft) NO 53 0 min 9 W/m 7,3 C 9,9 C 29,0 km/h (5 Bft)
01.05.2017 20:39 12,2 C 72 % 1014,7 hPa 0,0 l/m 12,4 km/h (2 Bft) N-NO 33 0 min 9 W/m 7,3 C 8,9 C 30,6 km/h (5 Bft)
01.05.2017 20:42 12,2 C 71 % 1014,7 hPa 0,0 l/m 10,8 km/h (2 Bft) NO 38 0 min 7 W/m 7,1 C 9,6 C 19,3 km/h (3 Bft)
01.05.2017 20:45 12,2 C 71 % 1014,8 hPa 0,0 l/m 8,8 km/h (2 Bft) NO 51 0 min 5 W/m 7,1 C 10,7 C 25,7 km/h (4 Bft)
01.05.2017 20:48 12,1 C 71 % 1014,9 hPa 0,0 l/m 9,2 km/h (2 Bft) NO 45 0 min 0 W/m 7,0 C 10,3 C 22,5 km/h (4 Bft)
01.05.2017 20:51 12,1 C 71 % 1014,9 hPa 0,0 l/m 9,7 km/h (2 Bft) NO 53 0 min 0 W/m 7,0 C 10,1 C 24,1 km/h (4 Bft)
01.05.2017 20:54 12,0 C 71 % 1014,9 hPa 0,0 l/m 11,0 km/h (2 Bft) O-NO 65 0 min 0 W/m 6,9 C 9,3 C 20,9 km/h (4 Bft)
01.05.2017 20:57 11,9 C 71 % 1014,9 hPa 0,0 l/m 10,3 km/h (2 Bft) O-NO 57 0 min 0 W/m 6,8 C 9,5 C 20,9 km/h (4 Bft)
01.05.2017 21:00 11,9 C 71 % 1015,0 hPa 0,0 l/m 8,5 km/h (2 Bft) NO 49 0 min 0 W/m 6,8 C 10,5 C 17,7 km/h (3 Bft)
01.05.2017 21:03 11,9 C 71 % 1015,0 hPa 0,0 l/m 11,3 km/h (2 Bft) N-NO 17 0 min 0 W/m 6,8 C 9,0 C 25,7 km/h (4 Bft)
01.05.2017 21:06 11,8 C 71 % 1015,1 hPa 0,0 l/m 9,6 km/h (2 Bft) NO 52 0 min 0 W/m 6,7 C 9,8 C 25,7 km/h (4 Bft)
01.05.2017 21:09 11,8 C 71 % 1015,1 hPa 0,0 l/m 11,1 km/h (2 Bft) N-NO 15 0 min 0 W/m 6,7 C 9,0 C 30,6 km/h (5 Bft)
01.05.2017 21:12 11,8 C 72 % 1015,2 hPa 0,0 l/m 8,5 km/h (2 Bft) NO 46 0 min 0 W/m 6,9 C 10,4 C 19,3 km/h (3 Bft)
01.05.2017 21:15 11,7 C 72 % 1015,2 hPa 0,0 l/m 10,3 km/h (2 Bft) NO 42 0 min 0 W/m 6,8 C 9,3 C 19,3 km/h (3 Bft)
01.05.2017 21:18 11,7 C 71 % 1015,3 hPa 0,0 l/m 9,9 km/h (2 Bft) NO 40 0 min 0 W/m 6,6 C 9,5 C 20,9 km/h (4 Bft)
01.05.2017 21:21 11,7 C 71 % 1015,3 hPa 0,0 l/m 11,2 km/h (2 Bft) NO 38 0 min 0 W/m 6,6 C 8,9 C 24,1 km/h (4 Bft)
01.05.2017 21:24 11,7 C 71 % 1015,4 hPa 0,0 l/m 9,8 km/h (2 Bft) N-NO 22 0 min 0 W/m 6,6 C 9,6 C 20,9 km/h (4 Bft)
01.05.2017 21:27 11,7 C 71 % 1015,4 hPa 0,0 l/m 9,3 km/h (2 Bft) N-NO 13 0 min 0 W/m 6,6 C 9,9 C 19,3 km/h (3 Bft)
01.05.2017 21:30 11,7 C 72 % 1015,4 hPa 0,0 l/m 11,4 km/h (2 Bft) N-NO 31 0 min 0 W/m 6,8 C 8,8 C 20,9 km/h (4 Bft)
01.05.2017 21:33 11,7 C 71 % 1015,5 hPa 0,0 l/m 12,0 km/h (2 Bft) O-NO 65 0 min 0 W/m 6,6 C 8,5 C 24,1 km/h (4 Bft)
01.05.2017 21:36 11,7 C 71 % 1015,6 hPa 0,0 l/m 9,8 km/h (2 Bft) O-NO 70 0 min 0 W/m 6,6 C 9,6 C 20,9 km/h (4 Bft)
01.05.2017 21:39 11,6 C 71 % 1015,6 hPa 0,0 l/m 10,2 km/h (2 Bft) O-NO 61 0 min 0 W/m 6,5 C 9,3 C 22,5 km/h (4 Bft)
01.05.2017 21:42 11,6 C 71 % 1015,6 hPa 0,0 l/m 10,8 km/h (2 Bft) NO 40 0 min 0 W/m 6,5 C 8,9 C 20,9 km/h (4 Bft)
01.05.2017 21:45 11,6 C 71 % 1015,6 hPa 0,0 l/m 11,2 km/h (2 Bft) N-NO 27 0 min 0 W/m 6,5 C 8,7 C 20,9 km/h (4 Bft)
01.05.2017 21:48 11,6 C 72 % 1015,7 hPa 0,0 l/m 9,6 km/h (2 Bft) O-NO 74 0 min 0 W/m 6,7 C 9,6 C 17,7 km/h (3 Bft)
01.05.2017 21:51 11,5 C 72 % 1015,6 hPa 0,0 l/m 9,3 km/h (2 Bft) O-NO 59 0 min 0 W/m 6,6 C 9,6 C 20,9 km/h (4 Bft)
01.05.2017 21:54 11,5 C 72 % 1015,7 hPa 0,0 l/m 9,5 km/h (2 Bft) NO 47 0 min 0 W/m 6,6 C 9,5 C 25,7 km/h (4 Bft)
01.05.2017 21:57 11,4 C 72 % 1015,7 hPa 0,0 l/m 6,4 km/h (2 Bft) N-NO 26 0 min 0 W/m 6,5 C 11,4 C 16,1 km/h (3 Bft)
01.05.2017 22:00 11,4 C 72 % 1015,7 hPa 0,0 l/m 9,3 km/h (2 Bft) NO 42 0 min 0 W/m 6,5 C 9,5 C 20,9 km/h (4 Bft)
01.05.2017 22:03 11,4 C 72 % 1015,8 hPa 0,0 l/m 9,5 km/h (2 Bft) N-NO 33 0 min 0 W/m 6,5 C 9,4 C 16,1 km/h (3 Bft)
01.05.2017 22:06 11,4 C 72 % 1015,7 hPa 0,0 l/m 8,7 km/h (2 Bft) N-NO 31 0 min 0 W/m 6,5 C 9,9 C 19,3 km/h (3 Bft)
01.05.2017 22:09 11,3 C 73 % 1015,8 hPa 0,0 l/m 10,6 km/h (2 Bft) NO 38 0 min 0 W/m 6,6 C 8,7 C 20,9 km/h (4 Bft)
01.05.2017 22:12 11,3 C 72 % 1015,8 hPa 0,0 l/m 8,8 km/h (2 Bft) NO 36 0 min 0 W/m 6,4 C 9,7 C 24,1 km/h (4 Bft)
01.05.2017 22:15 11,3 C 72 % 1015,9 hPa 0,0 l/m 9,8 km/h (2 Bft) O-NO 77 0 min 0 W/m 6,4 C 9,1 C 27,4 km/h (5 Bft)
01.05.2017 22:18 11,3 C 73 % 1015,9 hPa 0,0 l/m 7,7 km/h (2 Bft) NO 51 0 min 0 W/m 6,6 C 10,4 C 20,9 km/h (4 Bft)
01.05.2017 22:21 11,2 C 73 % 1015,9 hPa 0,0 l/m 9,0 km/h (2 Bft) O-NO 59 0 min 0 W/m 6,5 C 9,5 C 19,3 km/h (3 Bft)
01.05.2017 22:24 11,2 C 73 % 1016,0 hPa 0,0 l/m 9,6 km/h (2 Bft) O-NO 60 0 min 0 W/m 6,5 C 9,1 C 25,7 km/h (4 Bft)
01.05.2017 22:27 11,2 C 73 % 1016,0 hPa 0,0 l/m 8,6 km/h (2 Bft) N 360 0 min 0 W/m 6,5 C 9,7 C 22,5 km/h (4 Bft)
01.05.2017 22:30 11,2 C 73 % 1016,1 hPa 0,0 l/m 7,9 km/h (2 Bft) O-NO 71 0 min 0 W/m 6,5 C 10,2 C 20,9 km/h (4 Bft)
01.05.2017 22:33 11,1 C 73 % 1016,1 hPa 0,0 l/m 8,5 km/h (2 Bft) O-NO 77 0 min 0 W/m 6,4 C 9,7 C 24,1 km/h (4 Bft)
01.05.2017 22:36 11,1 C 73 % 1016,1 hPa 0,0 l/m 9,9 km/h (2 Bft) N-NO 28 0 min 0 W/m 6,4 C 8,9 C 20,9 km/h (4 Bft)
01.05.2017 22:39 11,1 C 73 % 1016,1 hPa 0,0 l/m 6,2 km/h (2 Bft) O-SO 107 0 min 0 W/m 6,4 C 11,1 C 12,9 km/h (3 Bft)
01.05.2017 22:42 11,1 C 73 % 1016,1 hPa 0,0 l/m 8,0 km/h (2 Bft) O-NO 76 0 min 0 W/m 6,4 C 10,0 C 25,7 km/h (4 Bft)
01.05.2017 22:45 11,0 C 73 % 1016,1 hPa 0,0 l/m 7,4 km/h (2 Bft) O-NO 76 0 min 0 W/m 6,4 C 10,3 C 19,3 km/h (3 Bft)
01.05.2017 22:48 11,0 C 73 % 1016,1 hPa 0,0 l/m 9,1 km/h (2 Bft) N-NW 333 0 min 0 W/m 6,4 C 9,2 C 20,9 km/h (4 Bft)
01.05.2017 22:51 10,9 C 73 % 1016,1 hPa 0,0 l/m 7,9 km/h (2 Bft) NO 36 0 min 0 W/m 6,3 C 9,9 C 19,3 km/h (3 Bft)
01.05.2017 22:54 10,9 C 73 % 1016,2 hPa 0,0 l/m 6,3 km/h (2 Bft) NO 42 0 min 0 W/m 6,3 C 10,9 C 16,1 km/h (3 Bft)
01.05.2017 22:57 10,9 C 74 % 1016,2 hPa 0,0 l/m 7,1 km/h (2 Bft) O-NO 67 0 min 0 W/m 6,5 C 10,4 C 22,5 km/h (4 Bft)
01.05.2017 23:00 10,9 C 74 % 1016,2 hPa 0,0 l/m 6,7 km/h (2 Bft) O-NO 74 0 min 0 W/m 6,5 C 10,7 C 17,7 km/h (3 Bft)
01.05.2017 23:03 10,8 C 74 % 1016,2 hPa 0,0 l/m 5,4 km/h (2 Bft) N-NW 341 0 min 0 W/m 6,4 C 10,8 C 16,1 km/h (3 Bft)
01.05.2017 23:06 10,8 C 74 % 1016,2 hPa 0,0 l/m 6,4 km/h (2 Bft) O-NO 59 0 min 0 W/m 6,4 C 10,8 C 17,7 km/h (3 Bft)
01.05.2017 23:09 10,8 C 74 % 1016,2 hPa 0,0 l/m 6,8 km/h (2 Bft) NO 55 0 min 0 W/m 6,4 C 10,5 C 14,5 km/h (3 Bft)
01.05.2017 23:12 10,8 C 75 % 1016,3 hPa 0,0 l/m 7,8 km/h (2 Bft) O-SO 109 0 min 0 W/m 6,5 C 9,8 C 19,3 km/h (3 Bft)
01.05.2017 23:15 10,8 C 74 % 1016,3 hPa 0,0 l/m 8,7 km/h (2 Bft) SW 219 0 min 0 W/m 6,4 C 9,2 C 16,1 km/h (3 Bft)
01.05.2017 23:18 10,7 C 74 % 1016,3 hPa 0,0 l/m 7,5 km/h (2 Bft) NO 51 0 min 0 W/m 6,3 C 9,9 C 14,5 km/h (3 Bft)
01.05.2017 23:21 10,8 C 75 % 1016,3 hPa 0,0 l/m 6,0 km/h (2 Bft) S-SO 150 0 min 0 W/m 6,5 C 10,8 C 12,9 km/h (3 Bft)
01.05.2017 23:24 10,7 C 74 % 1016,4 hPa 0,0 l/m 8,0 km/h (2 Bft) O-SO 119 0 min 0 W/m 6,3 C 9,6 C 17,7 km/h (3 Bft)
01.05.2017 23:27 10,7 C 75 % 1016,3 hPa 0,0 l/m 7,0 km/h (2 Bft) N 360 0 min 0 W/m 6,5 C 10,3 C 17,7 km/h (3 Bft)
01.05.2017 23:30 10,7 C 75 % 1016,3 hPa 0,0 l/m 6,9 km/h (2 Bft) N-NW 338 0 min 0 W/m 6,5 C 10,4 C 17,7 km/h (3 Bft)
01.05.2017 23:33 10,6 C 75 % 1016,3 hPa 0,0 l/m 5,2 km/h (1 Bft) NO 52 0 min 0 W/m 6,4 C 10,6 C 11,3 km/h (2 Bft)
01.05.2017 23:36 10,6 C 75 % 1016,3 hPa 0,0 l/m 7,5 km/h (2 Bft) O 86 0 min 0 W/m 6,4 C 9,8 C 17,7 km/h (3 Bft)
01.05.2017 23:39 10,6 C 75 % 1016,4 hPa 0,0 l/m 7,0 km/h (2 Bft) O 82 0 min 0 W/m 6,4 C 10,2 C 14,5 km/h (3 Bft)
01.05.2017 23:42 10,6 C 75 % 1016,3 hPa 0,0 l/m 8,1 km/h (2 Bft) NO 53 0 min 0 W/m 6,4 C 9,4 C 16,1 km/h (3 Bft)
01.05.2017 23:45 10,6 C 75 % 1016,4 hPa 0,0 l/m 6,3 km/h (2 Bft) NO 40 0 min 0 W/m 6,4 C 10,6 C 17,7 km/h (3 Bft)
01.05.2017 23:48 10,6 C 75 % 1016,3 hPa 0,0 l/m 6,9 km/h (2 Bft) NO 48 0 min 0 W/m 6,4 C 10,3 C 14,5 km/h (3 Bft)
01.05.2017 23:51 10,5 C 75 % 1016,4 hPa 0,0 l/m 7,4 km/h (2 Bft) NO 46 0 min 0 W/m 6,3 C 9,8 C 19,3 km/h (3 Bft)
01.05.2017 23:54 10,5 C 75 % 1016,4 hPa 0,0 l/m 7,6 km/h (2 Bft) NO 51 0 min 0 W/m 6,3 C 9,6 C 19,3 km/h (3 Bft)
01.05.2017 23:57 10,5 C 75 % 1016,4 hPa 0,0 l/m 6,6 km/h (2 Bft) NO 38 0 min 0 W/m 6,3 C 10,4 C 17,7 km/h (3 Bft)
_ Min-Zeit 06:36 12:57 05:24 - 03:24 - - - - 03:30 05:21 01:18
Minimum _ 6,8 C 56 % 1011,0 hPa - 4,4 km/h (1 Bft) - - - - 3,1 C 2,7 C 11,3 km/h (2 Bft)
_ Max-Zeit 13:48 05:45 23:24 00:00 20:12 - - 08:15 13:36 18:45 12:42 13:18
Maximum _ 16,4 C 78 % 1016,4 hPa 0,0 l/m 13,2 km/h
N (3 Bft)
- - 3 min 772 W/m 8,5 C 15,6 C 30,6 km/h
N-NO (5 Bft)
Durchschnitt _ 11,2 C 69 % 1012,7 hPa #0,0 l/m 8,6 km/h (2 Bft) NO - #5:15 h 259 W/m 5,7 C 9,8 C 20,4 km/h (4 Bft)
2017 Cux-Wetter.de -Die Nutzung der Wetterdaten nur mit ausdrcklicher Genehmigung